CFG2368 EDDF-VTSP
Flight info
| Callsign | CFG2368 |
|---|---|
| Flight time | N/A |
| Altitude | 31000 |
| Route | CINDY8S/18 CINDY Z74 HAREM DCT ASLEP DCT TAKUT L603 BESNI L605 MIQ DCT ALUTU DCT BIBAG L605 ESEGA DCT VELOM DCT GOTAR DCT INVED DCT LUGEB DCT UDROS UM859 KARDE UN644 ROLIN DCT TAGAR DCT BT DCT BARAD M747 SULEL N449 DUKAN B449 DOLOS B475 RUBAD A846 RANAH L750 UPVAL L750 MERUN L333 KKJ L759 SATVA |
| Aircraft | A339/H-SDE1E2E3GHIJ1J4J7LM1OP2RVWXYZ/LB1D1 |
Departure
| Time | 2026-05-03 20:15 |
|---|---|
| Airport | Frankfurt Main Airport (EDDF) |
Arrival
| Time | N/A |
|---|---|
| Airport | Phuket International Airport (VTSP) |
| Time | Latitude | Longitude | Altitude | Speed | Heading |
|---|---|---|---|---|---|
| 2026-05-03 20:15 | 49.96088 | 8.52642 | 2533 ft | 215 kts | 172° |
| 2026-05-03 20:15 | 49.94696 | 8.53758 | 2947 ft | 238 kts | 143° |
| 2026-05-03 20:15 | 49.93765 | 8.55915 | 3492 ft | 254 kts | 112° |
| 2026-05-03 20:15 | 49.93605 | 8.58717 | 4074 ft | 267 kts | 89° |
| 2026-05-03 20:16 | 49.93785 | 8.61636 | 4436 ft | 280 kts | 86° |
| 2026-05-03 20:16 | 49.93953 | 8.64661 | 5003 ft | 282 kts | 92° |
| 2026-05-03 20:16 | 49.93891 | 8.67680 | 5592 ft | 278 kts | 105° |
| 2026-05-03 20:16 | 49.93237 | 8.70412 | 6071 ft | 266 kts | 131° |
| 2026-05-03 20:17 | 49.91979 | 8.72388 | 6609 ft | 252 kts | 153° |
| 2026-05-03 20:17 | 49.90488 | 8.73797 | 7125 ft | 252 kts | 158° |
| 2026-05-03 20:17 | 49.88986 | 8.75233 | 7646 ft | 259 kts | 148° |
| 2026-05-03 20:17 | 49.87742 | 8.77328 | 8177 ft | 271 kts | 130° |
| 2026-05-03 20:18 | 49.86792 | 8.79900 | 8696 ft | 278 kts | 125° |
| 2026-05-03 20:18 | 49.85844 | 8.82589 | 8988 ft | 291 kts | 124° |
| 2026-05-03 20:18 | 49.84883 | 8.85347 | 9582 ft | 290 kts | 126° |
| 2026-05-03 20:18 | 49.83902 | 8.88094 | 10085 ft | 293 kts | 126° |
| 2026-05-03 20:19 | 49.82871 | 8.90912 | 10300 ft | 309 kts | 127° |
| 2026-05-03 20:19 | 49.81772 | 8.93868 | 10460 ft | 325 kts | 126° |
| 2026-05-03 20:19 | 49.80631 | 8.96982 | 10615 ft | 340 kts | 125° |
| 2026-05-03 20:19 | 49.79458 | 9.00204 | 11031 ft | 345 kts | 124° |
| 2026-05-03 20:20 | 49.78281 | 9.03466 | 11521 ft | 349 kts | 124° |
| 2026-05-03 20:20 | 49.77090 | 9.06753 | 11993 ft | 352 kts | 123° |
| 2026-05-03 20:20 | 49.76078 | 9.10235 | 12472 ft | 359 kts | 114° |
| 2026-05-03 20:20 | 49.75399 | 9.13992 | 12948 ft | 365 kts | 107° |
| 2026-05-03 20:21 | 49.74635 | 9.17721 | 13331 ft | 364 kts | 118° |
| 2026-05-03 20:21 | 49.73382 | 9.21087 | 13768 ft | 361 kts | 131° |
| 2026-05-03 20:21 | 49.71743 | 9.24004 | 14179 ft | 360 kts | 137° |
| 2026-05-03 20:21 | 49.70066 | 9.26897 | 14682 ft | 361 kts | 135° |
| 2026-05-03 20:22 | 49.68402 | 9.29817 | 14953 ft | 365 kts | 136° |
| 2026-05-03 20:22 | 49.66723 | 9.32765 | 15374 ft | 365 kts | 135° |
| 2026-05-03 20:22 | 49.65038 | 9.35733 | 15782 ft | 369 kts | 135° |
| 2026-05-03 20:22 | 49.63381 | 9.38764 | 16134 ft | 373 kts | 132° |
| 2026-05-03 20:23 | 49.61930 | 9.42117 | 16640 ft | 377 kts | 123° |
| 2026-05-03 20:23 | 49.60847 | 9.45767 | 17003 ft | 384 kts | 112° |
| 2026-05-03 20:23 | 49.60026 | 9.49706 | 17472 ft | 385 kts | 111° |
| 2026-05-03 20:23 | 49.59191 | 9.53650 | 17848 ft | 388 kts | 111° |
| 2026-05-03 20:24 | 49.58320 | 9.57596 | 18179 ft | 390 kts | 112° |
| 2026-05-03 20:24 | 49.57464 | 9.61594 | 18584 ft | 395 kts | 111° |
| 2026-05-03 20:24 | 49.56620 | 9.65611 | 19048 ft | 395 kts | 110° |
| 2026-05-03 20:24 | 49.55775 | 9.69641 | 19385 ft | 397 kts | 111° |
| 2026-05-03 20:25 | 49.54910 | 9.73680 | 19729 ft | 398 kts | 111° |
| 2026-05-03 20:25 | 49.54033 | 9.77739 | 20113 ft | 400 kts | 111° |
| 2026-05-03 20:25 | 49.53014 | 9.81722 | 20485 ft | 400 kts | 119° |
| 2026-05-03 20:25 | 49.51645 | 9.85439 | 20859 ft | 399 kts | 127° |
| 2026-05-03 20:26 | 49.49964 | 9.88816 | 21245 ft | 397 kts | 134° |
| 2026-05-03 20:26 | 49.48765 | 9.91028 | 21440 ft | 400 kts | 133° |
| 2026-05-03 20:26 | 49.46989 | 9.94345 | 21806 ft | 403 kts | 133° |
| 2026-05-03 20:26 | 49.45196 | 9.97662 | 22083 ft | 406 kts | 132° |
| 2026-05-03 20:27 | 49.43419 | 10.01050 | 22541 ft | 409 kts | 132° |
| 2026-05-03 20:27 | 49.41646 | 10.04453 | 23019 ft | 409 kts | 132° |
| 2026-05-03 20:27 | 49.39856 | 10.07857 | 23389 ft | 410 kts | 131° |
| 2026-05-03 20:27 | 49.38060 | 10.11289 | 23694 ft | 413 kts | 133° |
| 2026-05-03 20:28 | 49.36265 | 10.14666 | 24059 ft | 414 kts | 133° |
| 2026-05-03 20:28 | 49.34429 | 10.18088 | 24378 ft | 417 kts | 133° |
| 2026-05-03 20:28 | 49.32591 | 10.21525 | 24731 ft | 418 kts | 133° |
| 2026-05-03 20:28 | 49.30741 | 10.24981 | 25041 ft | 420 kts | 133° |
| 2026-05-03 20:29 | 49.28881 | 10.28452 | 25353 ft | 423 kts | 132° |
| 2026-05-03 20:29 | 49.27010 | 10.31956 | 25621 ft | 426 kts | 133° |
| 2026-05-03 20:29 | 49.25153 | 10.35431 | 25964 ft | 428 kts | 133° |
| 2026-05-03 20:29 | 49.23226 | 10.38894 | 26274 ft | 428 kts | 137° |
| 2026-05-03 20:30 | 49.21102 | 10.42084 | 26604 ft | 428 kts | 139° |
| 2026-05-03 20:30 | 49.18963 | 10.45258 | 26899 ft | 430 kts | 139° |
| 2026-05-03 20:30 | 49.16811 | 10.48442 | 27244 ft | 431 kts | 139° |
| 2026-05-03 20:30 | 49.14651 | 10.51641 | 27559 ft | 432 kts | 140° |
| 2026-05-03 20:31 | 49.12483 | 10.54837 | 27755 ft | 434 kts | 139° |
| 2026-05-03 20:31 | 49.10314 | 10.58058 | 28068 ft | 436 kts | 139° |
| 2026-05-03 20:31 | 49.08130 | 10.61293 | 28392 ft | 438 kts | 139° |
| 2026-05-03 20:31 | 49.05940 | 10.64528 | 28643 ft | 440 kts | 139° |
| 2026-05-03 20:32 | 49.03731 | 10.67788 | 28857 ft | 443 kts | 139° |
| 2026-05-03 20:32 | 49.01509 | 10.71054 | 29218 ft | 444 kts | 139° |
| 2026-05-03 20:32 | 48.99272 | 10.74317 | 29542 ft | 446 kts | 139° |
| 2026-05-03 20:32 | 48.97036 | 10.77600 | 29825 ft | 447 kts | 139° |
| 2026-05-03 20:33 | 48.94791 | 10.80892 | 30085 ft | 450 kts | 139° |
| 2026-05-03 20:33 | 48.92539 | 10.84199 | 30351 ft | 451 kts | 139° |
| 2026-05-03 20:33 | 48.90281 | 10.87518 | 30603 ft | 452 kts | 139° |
| 2026-05-03 20:33 | 48.88013 | 10.90847 | 30872 ft | 454 kts | 139° |
| 2026-05-03 20:34 | 48.85739 | 10.94174 | 31097 ft | 455 kts | 139° |
| 2026-05-03 20:34 | 48.83453 | 10.97514 | 31350 ft | 456 kts | 139° |
| 2026-05-03 20:34 | 48.81164 | 11.00861 | 31512 ft | 460 kts | 139° |
| 2026-05-03 20:34 | 48.78846 | 11.04246 | 31680 ft | 463 kts | 139° |
| 2026-05-03 20:35 | 48.76518 | 11.07627 | 31933 ft | 464 kts | 139° |
| 2026-05-03 20:35 | 48.74181 | 11.11005 | 32219 ft | 465 kts | 139° |
| 2026-05-03 20:35 | 48.71836 | 11.14386 | 32430 ft | 466 kts | 139° |
| 2026-05-03 20:35 | 48.69485 | 11.17779 | 32639 ft | 468 kts | 139° |
| 2026-05-03 20:36 | 48.67150 | 11.21225 | 32819 ft | 470 kts | 135° |
| 2026-05-03 20:36 | 48.65118 | 11.25123 | 32972 ft | 475 kts | 126° |
| 2026-05-03 20:36 | 48.63517 | 11.29515 | 33112 ft | 480 kts | 116° |
| 2026-05-03 20:36 | 48.62383 | 11.34271 | 33237 ft | 483 kts | 109° |
| 2026-05-03 20:37 | 48.61388 | 11.39132 | 33288 ft | 486 kts | 109° |
| 2026-05-03 20:37 | 48.59343 | 11.48886 | 33517 ft | 487 kts | 109° |
| 2026-05-03 20:37 | 48.58304 | 11.53753 | 33623 ft | 487 kts | 110° |
| 2026-05-03 20:38 | 48.57263 | 11.58621 | 33775 ft | 487 kts | 109° |
| 2026-05-03 20:38 | 48.55744 | 11.68602 | 33956 ft | 488 kts | 104° |
| 2026-05-03 20:38 | 48.55022 | 11.73606 | 34099 ft | 488 kts | 104° |
| 2026-05-03 20:39 | 48.54290 | 11.78600 | 34227 ft | 487 kts | 103° |
| 2026-05-03 20:39 | 48.53565 | 11.83587 | 34384 ft | 486 kts | 104° |
| 2026-05-03 20:39 | 48.52834 | 11.88571 | 34511 ft | 486 kts | 104° |
| 2026-05-03 20:39 | 48.52098 | 11.93543 | 34641 ft | 486 kts | 103° |
| 2026-05-03 20:40 | 48.51363 | 11.98521 | 34780 ft | 486 kts | 104° |
| 2026-05-03 20:40 | 48.50626 | 12.03487 | 34896 ft | 486 kts | 104° |
| 2026-05-03 20:40 | 48.49886 | 12.08452 | 34969 ft | 486 kts | 104° |
| 2026-05-03 20:41 | 48.48407 | 12.18301 | 34951 ft | 484 kts | 104° |
| 2026-05-03 20:41 | 48.46919 | 12.28152 | 34945 ft | 482 kts | 104° |
| 2026-05-03 20:42 | 48.45420 | 12.37992 | 34932 ft | 482 kts | 104° |
| 2026-05-03 20:42 | 48.43912 | 12.47835 | 34933 ft | 482 kts | 104° |
| 2026-05-03 20:43 | 48.42377 | 12.57654 | 34914 ft | 481 kts | 104° |
| 2026-05-03 20:43 | 48.40860 | 12.67456 | 34910 ft | 481 kts | 104° |
| 2026-05-03 20:44 | 48.39208 | 12.77208 | 34915 ft | 480 kts | 110° |
| 2026-05-03 20:44 | 48.36994 | 12.86688 | 34917 ft | 480 kts | 110° |
| 2026-05-03 20:45 | 48.34796 | 12.96154 | 34904 ft | 480 kts | 110° |
| 2026-05-03 20:45 | 48.32586 | 13.05622 | 34908 ft | 480 kts | 110° |
| 2026-05-03 20:46 | 48.30360 | 13.15091 | 34916 ft | 481 kts | 110° |
| 2026-05-03 20:46 | 48.28129 | 13.24565 | 34917 ft | 481 kts | 110° |
| 2026-05-03 20:47 | 48.25891 | 13.34036 | 34918 ft | 482 kts | 110° |
| 2026-05-03 20:47 | 48.23654 | 13.43511 | 34925 ft | 482 kts | 110° |
| 2026-05-03 20:48 | 48.20960 | 13.52615 | 34925 ft | 480 kts | 121° |
| 2026-05-03 20:48 | 48.17366 | 13.61031 | 34925 ft | 480 kts | 124° |
| 2026-05-03 20:49 | 48.13726 | 13.69481 | 34932 ft | 479 kts | 124° |
| 2026-05-03 20:49 | 48.10158 | 13.77771 | 34926 ft | 480 kts | 123° |
| 2026-05-03 20:50 | 48.06520 | 13.86193 | 34926 ft | 480 kts | 123° |
| 2026-05-03 20:50 | 48.02924 | 13.94517 | 34947 ft | 480 kts | 123° |
| 2026-05-03 20:51 | 47.99285 | 14.02877 | 34938 ft | 480 kts | 123° |
| 2026-05-03 20:51 | 47.95645 | 14.11234 | 34943 ft | 480 kts | 123° |
| 2026-05-03 20:52 | 47.91990 | 14.19589 | 34942 ft | 481 kts | 123° |
| 2026-05-03 20:52 | 47.88338 | 14.27951 | 34950 ft | 482 kts | 123° |
| 2026-05-03 20:53 | 47.84653 | 14.36305 | 34970 ft | 483 kts | 123° |
| 2026-05-03 20:53 | 47.80967 | 14.44656 | 34974 ft | 483 kts | 123° |
| 2026-05-03 20:54 | 47.77266 | 14.53011 | 34984 ft | 484 kts | 123° |
| 2026-05-03 20:54 | 47.71695 | 14.65558 | 35008 ft | 485 kts | 123° |
| 2026-05-03 20:55 | 47.67967 | 14.73909 | 35019 ft | 485 kts | 123° |
| 2026-05-03 20:55 | 47.64237 | 14.82249 | 35040 ft | 485 kts | 123° |
| 2026-05-03 20:56 | 47.60505 | 14.90554 | 35067 ft | 489 kts | 123° |
| 2026-05-03 20:56 | 47.56726 | 14.98961 | 35058 ft | 491 kts | 123° |
| 2026-05-03 20:57 | 47.52943 | 15.07331 | 35069 ft | 487 kts | 123° |
| 2026-05-03 20:57 | 47.49163 | 15.15682 | 35069 ft | 490 kts | 123° |
| 2026-05-03 20:58 | 47.45381 | 15.24010 | 35081 ft | 484 kts | 123° |
| 2026-05-03 20:58 | 47.41613 | 15.32282 | 35081 ft | 487 kts | 123° |
| 2026-05-03 20:59 | 47.37828 | 15.40564 | 35080 ft | 486 kts | 123° |
| 2026-05-03 20:59 | 47.34038 | 15.48829 | 35089 ft | 487 kts | 123° |
| 2026-05-03 21:00 | 47.31522 | 15.54313 | 35090 ft | 488 kts | 123° |
| 2026-05-03 21:00 | 47.26425 | 15.65374 | 35092 ft | 488 kts | 123° |
| 2026-05-03 21:01 | 47.22603 | 15.73625 | 35092 ft | 488 kts | 123° |
| 2026-05-03 21:01 | 47.18781 | 15.81869 | 35082 ft | 488 kts | 123° |
| 2026-05-03 21:02 | 47.14952 | 15.90104 | 35090 ft | 488 kts | 123° |
| 2026-05-03 21:02 | 47.11118 | 15.98321 | 35081 ft | 488 kts | 123° |
| 2026-05-03 21:03 | 47.07278 | 16.06518 | 35070 ft | 487 kts | 123° |
| 2026-05-03 21:03 | 47.03459 | 16.14647 | 35077 ft | 487 kts | 123° |
| 2026-05-03 21:04 | 47.00030 | 16.23174 | 35074 ft | 485 kts | 112° |
| 2026-05-03 21:04 | 46.97936 | 16.32512 | 35080 ft | 482 kts | 102° |
| 2026-05-03 21:05 | 46.96257 | 16.41999 | 35089 ft | 483 kts | 103° |
| 2026-05-03 21:05 | 46.94525 | 16.51504 | 35091 ft | 484 kts | 103° |
| 2026-05-03 21:06 | 46.92784 | 16.61003 | 35100 ft | 483 kts | 103° |
| 2026-05-03 21:06 | 46.91036 | 16.70479 | 35089 ft | 482 kts | 103° |
| 2026-05-03 21:07 | 46.89279 | 16.79938 | 35094 ft | 482 kts | 103° |
| 2026-05-03 21:07 | 46.87518 | 16.89392 | 35111 ft | 482 kts | 103° |
| 2026-05-03 21:08 | 46.85747 | 16.98831 | 35119 ft | 482 kts | 103° |
| 2026-05-03 21:08 | 46.83977 | 17.08269 | 35124 ft | 482 kts | 103° |
| 2026-05-03 21:09 | 46.82203 | 17.17701 | 35124 ft | 481 kts | 103° |
| 2026-05-03 21:09 | 46.80411 | 17.27115 | 35126 ft | 481 kts | 103° |
| 2026-05-03 21:10 | 46.78612 | 17.36524 | 35133 ft | 481 kts | 103° |
| 2026-05-03 21:10 | 46.76822 | 17.45842 | 35123 ft | 481 kts | 102° |
| 2026-05-03 21:11 | 46.75011 | 17.55218 | 35117 ft | 480 kts | 103° |
| 2026-05-03 21:11 | 46.73196 | 17.64581 | 35116 ft | 480 kts | 103° |
| 2026-05-03 21:12 | 46.71371 | 17.73931 | 35130 ft | 480 kts | 102° |
| 2026-05-03 21:12 | 46.69543 | 17.83270 | 35127 ft | 479 kts | 102° |
| 2026-05-03 21:13 | 46.67711 | 17.92591 | 35127 ft | 479 kts | 102° |
| 2026-05-03 21:13 | 46.66188 | 18.00331 | 35127 ft | 478 kts | 103° |
| 2026-05-03 21:14 | 46.64342 | 18.09632 | 35131 ft | 478 kts | 103° |
| 2026-05-03 21:14 | 46.62188 | 18.20414 | 35133 ft | 477 kts | 102° |
| 2026-05-03 21:15 | 46.60341 | 18.29675 | 35125 ft | 476 kts | 102° |
| 2026-05-03 21:15 | 46.58779 | 18.37421 | 35127 ft | 476 kts | 102° |
| 2026-05-03 21:16 | 46.56904 | 18.46648 | 35130 ft | 476 kts | 103° |
| 2026-05-03 21:16 | 46.55050 | 18.55764 | 35148 ft | 475 kts | 102° |
| 2026-05-03 21:17 | 46.53176 | 18.64959 | 35142 ft | 474 kts | 102° |
| 2026-05-03 21:17 | 46.51305 | 18.74134 | 35143 ft | 474 kts | 102° |
| 2026-05-03 21:18 | 46.49418 | 18.83299 | 35143 ft | 474 kts | 102° |
| 2026-05-03 21:18 | 46.47527 | 18.92430 | 35151 ft | 473 kts | 103° |
| 2026-05-03 21:19 | 46.45623 | 19.01582 | 35153 ft | 473 kts | 103° |
| 2026-05-03 21:19 | 46.43726 | 19.10700 | 35147 ft | 472 kts | 103° |
| 2026-05-03 21:20 | 46.41806 | 19.19802 | 35152 ft | 472 kts | 103° |
| 2026-05-03 21:20 | 46.39893 | 19.28895 | 35155 ft | 471 kts | 103° |
| 2026-05-03 21:21 | 46.37977 | 19.37973 | 35155 ft | 471 kts | 103° |
| 2026-05-03 21:21 | 46.36060 | 19.47034 | 35157 ft | 471 kts | 103° |
| 2026-05-03 21:22 | 46.34126 | 19.56091 | 35152 ft | 470 kts | 103° |
| 2026-05-03 21:22 | 46.32182 | 19.65132 | 35166 ft | 470 kts | 103° |
| 2026-05-03 21:23 | 46.30239 | 19.74165 | 35168 ft | 470 kts | 103° |
| 2026-05-03 21:23 | 46.28289 | 19.83178 | 35165 ft | 470 kts | 103° |
| 2026-05-03 21:24 | 46.26333 | 19.92183 | 35166 ft | 469 kts | 103° |
| 2026-05-03 21:24 | 46.24371 | 20.01181 | 35167 ft | 469 kts | 103° |
| 2026-05-03 21:25 | 46.22399 | 20.10176 | 35160 ft | 470 kts | 103° |
| 2026-05-03 21:25 | 46.20436 | 20.19098 | 35160 ft | 469 kts | 103° |
| 2026-05-03 21:26 | 46.18451 | 20.28073 | 35161 ft | 470 kts | 104° |
| 2026-05-03 21:26 | 46.16467 | 20.37046 | 35171 ft | 469 kts | 104° |
| 2026-05-03 21:27 | 46.14270 | 20.45912 | 35163 ft | 470 kts | 106° |
| 2026-05-03 21:27 | 46.12039 | 20.54758 | 35164 ft | 470 kts | 105° |
| 2026-05-03 21:28 | 46.09806 | 20.63603 | 35165 ft | 470 kts | 106° |
| 2026-05-03 21:28 | 46.07567 | 20.72404 | 35174 ft | 469 kts | 105° |
| 2026-05-03 21:29 | 46.05317 | 20.81218 | 35163 ft | 469 kts | 106° |
| 2026-05-03 21:29 | 46.03055 | 20.90008 | 35159 ft | 469 kts | 106° |
| 2026-05-03 21:30 | 46.00787 | 20.98791 | 35159 ft | 468 kts | 106° |
| 2026-05-03 21:30 | 45.98517 | 21.07551 | 35172 ft | 467 kts | 106° |
| 2026-05-03 21:31 | 45.96248 | 21.16287 | 35163 ft | 466 kts | 106° |
| 2026-05-03 21:31 | 45.93979 | 21.25000 | 35149 ft | 465 kts | 106° |
| 2026-05-03 21:32 | 45.91701 | 21.33701 | 35150 ft | 465 kts | 107° |
| 2026-05-03 21:32 | 45.89408 | 21.42386 | 35171 ft | 465 kts | 106° |
| 2026-05-03 21:33 | 45.87136 | 21.50999 | 35166 ft | 465 kts | 106° |
| 2026-05-03 21:33 | 45.84842 | 21.59650 | 35162 ft | 463 kts | 106° |
| 2026-05-03 21:34 | 45.82549 | 21.68280 | 35164 ft | 463 kts | 106° |
| 2026-05-03 21:34 | 45.80255 | 21.76872 | 35177 ft | 463 kts | 106° |
| 2026-05-03 21:35 | 45.77952 | 21.85478 | 35177 ft | 462 kts | 106° |
| 2026-05-03 21:35 | 45.75644 | 21.94064 | 35180 ft | 461 kts | 106° |
| 2026-05-03 21:36 | 45.73330 | 22.02623 | 35176 ft | 461 kts | 106° |
| 2026-05-03 21:36 | 45.71018 | 22.11173 | 35181 ft | 461 kts | 106° |
| 2026-05-03 21:37 | 45.68692 | 22.19714 | 35181 ft | 460 kts | 106° |
| 2026-05-03 21:37 | 45.66366 | 22.28238 | 35176 ft | 460 kts | 106° |
| 2026-05-03 21:38 | 45.64033 | 22.36752 | 35180 ft | 460 kts | 106° |
| 2026-05-03 21:38 | 45.61696 | 22.45273 | 35203 ft | 461 kts | 106° |
| 2026-05-03 21:39 | 45.59349 | 22.53788 | 35185 ft | 461 kts | 106° |
| 2026-05-03 21:39 | 45.56988 | 22.62283 | 35177 ft | 460 kts | 107° |
| 2026-05-03 21:40 | 45.54651 | 22.70710 | 35188 ft | 460 kts | 106° |
| 2026-05-03 21:40 | 45.52288 | 22.79188 | 35206 ft | 460 kts | 106° |
| 2026-05-03 21:41 | 45.49924 | 22.87652 | 35195 ft | 459 kts | 106° |
| 2026-05-03 21:41 | 45.47552 | 22.96106 | 35193 ft | 459 kts | 106° |
| 2026-05-03 21:42 | 45.45181 | 23.04538 | 35191 ft | 459 kts | 106° |
| 2026-05-03 21:42 | 45.42802 | 23.12970 | 35218 ft | 459 kts | 106° |
| 2026-05-03 21:43 | 45.40412 | 23.21388 | 35197 ft | 458 kts | 106° |
| 2026-05-03 21:43 | 45.38019 | 23.29793 | 35191 ft | 458 kts | 106° |
| 2026-05-03 21:44 | 45.35630 | 23.38181 | 35191 ft | 458 kts | 106° |
| 2026-05-03 21:44 | 45.33227 | 23.46564 | 35178 ft | 458 kts | 106° |
| 2026-05-03 21:45 | 45.30818 | 23.54936 | 35187 ft | 458 kts | 106° |
| 2026-05-03 21:45 | 45.28412 | 23.63300 | 35186 ft | 457 kts | 106° |
| 2026-05-03 21:46 | 45.25999 | 23.71659 | 35187 ft | 458 kts | 106° |
| 2026-05-03 21:46 | 45.23570 | 23.80015 | 35234 ft | 458 kts | 106° |
| 2026-05-03 21:47 | 45.21134 | 23.88360 | 35222 ft | 457 kts | 106° |
| 2026-05-03 21:47 | 45.18700 | 23.96685 | 35233 ft | 456 kts | 106° |
| 2026-05-03 21:48 | 45.16267 | 24.04982 | 35234 ft | 456 kts | 106° |
| 2026-05-03 21:48 | 45.13827 | 24.13274 | 35276 ft | 456 kts | 106° |
| 2026-05-03 21:49 | 45.11385 | 24.21571 | 35265 ft | 456 kts | 106° |
| 2026-05-03 21:49 | 45.08945 | 24.29789 | 35260 ft | 456 kts | 106° |
| 2026-05-03 21:50 | 45.06491 | 24.38052 | 35255 ft | 456 kts | 106° |
| 2026-05-03 21:50 | 45.04027 | 24.46315 | 35278 ft | 456 kts | 107° |
| 2026-05-03 21:51 | 45.01554 | 24.54582 | 35266 ft | 457 kts | 106° |
| 2026-05-03 21:51 | 44.99070 | 24.62832 | 35239 ft | 456 kts | 107° |
| 2026-05-03 21:52 | 44.96593 | 24.71071 | 35247 ft | 456 kts | 107° |
| 2026-05-03 21:52 | 44.94109 | 24.79304 | 35257 ft | 456 kts | 107° |
| 2026-05-03 21:53 | 44.91616 | 24.87540 | 35223 ft | 457 kts | 107° |
| 2026-05-03 21:53 | 44.89110 | 24.95781 | 35225 ft | 457 kts | 107° |
| 2026-05-03 21:54 | 44.86600 | 25.04020 | 35222 ft | 458 kts | 107° |
| 2026-05-03 21:54 | 44.84078 | 25.12265 | 35236 ft | 458 kts | 108° |
| 2026-05-03 21:55 | 44.81549 | 25.20525 | 35200 ft | 460 kts | 109° |
| 2026-05-03 21:55 | 44.79000 | 25.28791 | 35193 ft | 460 kts | 109° |
| 2026-05-03 21:56 | 44.76437 | 25.37044 | 35186 ft | 461 kts | 109° |
| 2026-05-03 21:56 | 44.73891 | 25.45291 | 35197 ft | 461 kts | 110° |
| 2026-05-03 21:57 | 44.71341 | 25.53515 | 35164 ft | 462 kts | 110° |
| 2026-05-03 21:57 | 44.68762 | 25.61786 | 35163 ft | 463 kts | 110° |
| 2026-05-03 21:58 | 44.66194 | 25.69997 | 35159 ft | 462 kts | 110° |
| 2026-05-03 21:58 | 44.63601 | 25.78263 | 35158 ft | 463 kts | 111° |
| 2026-05-03 21:59 | 44.60999 | 25.86519 | 35159 ft | 462 kts | 111° |
| 2026-05-03 21:59 | 44.58398 | 25.94750 | 35157 ft | 461 kts | 111° |
| 2026-05-03 22:00 | 44.55793 | 26.02970 | 35172 ft | 461 kts | 111° |
| 2026-05-03 22:00 | 44.53182 | 26.11182 | 35173 ft | 460 kts | 112° |
| 2026-05-03 22:01 | 44.50573 | 26.19362 | 35158 ft | 460 kts | 112° |
| 2026-05-03 22:01 | 44.47959 | 26.27530 | 35139 ft | 459 kts | 112° |
| 2026-05-03 22:02 | 44.45343 | 26.35682 | 35140 ft | 459 kts | 112° |
| 2026-05-03 22:02 | 44.42721 | 26.43828 | 35138 ft | 459 kts | 112° |
| 2026-05-03 22:03 | 44.40110 | 26.51920 | 35137 ft | 459 kts | 112° |
| 2026-05-03 22:03 | 44.37459 | 26.60103 | 35130 ft | 459 kts | 112° |
| 2026-05-03 22:04 | 44.34840 | 26.68168 | 35128 ft | 459 kts | 112° |
| 2026-05-03 22:04 | 44.32187 | 26.76281 | 35131 ft | 459 kts | 112° |
| 2026-05-03 22:05 | 44.29543 | 26.84393 | 35125 ft | 459 kts | 112° |
| 2026-05-03 22:05 | 44.26887 | 26.92488 | 35125 ft | 459 kts | 112° |
| 2026-05-03 22:06 | 44.24662 | 26.99259 | 35125 ft | 459 kts | 112° |
| 2026-05-03 22:06 | 44.22010 | 27.07291 | 35126 ft | 459 kts | 113° |
| 2026-05-03 22:07 | 44.19320 | 27.15431 | 35129 ft | 459 kts | 113° |
| 2026-05-03 22:07 | 44.16639 | 27.23510 | 35132 ft | 460 kts | 113° |
| 2026-05-03 22:08 | 44.13961 | 27.31544 | 35131 ft | 461 kts | 113° |
| 2026-05-03 22:08 | 44.11263 | 27.39638 | 35109 ft | 462 kts | 114° |
| 2026-05-03 22:09 | 44.08578 | 27.47659 | 35111 ft | 463 kts | 114° |
| 2026-05-03 22:10 | 44.04488 | 27.59825 | 35116 ft | 464 kts | 114° |
| 2026-05-03 22:10 | 44.01749 | 27.67937 | 35129 ft | 463 kts | 114° |
| 2026-05-03 22:11 | 43.99003 | 27.76025 | 35130 ft | 462 kts | 114° |
| 2026-05-03 22:11 | 43.96259 | 27.84093 | 35123 ft | 462 kts | 114° |
| 2026-05-03 22:12 | 43.93513 | 27.92143 | 35110 ft | 461 kts | 115° |
| 2026-05-03 22:12 | 43.90791 | 28.00155 | 35111 ft | 454 kts | 115° |
| 2026-05-03 22:13 | 43.88092 | 28.08054 | 35105 ft | 455 kts | 116° |
| 2026-05-03 22:13 | 43.85374 | 28.15982 | 35100 ft | 455 kts | 115° |
| 2026-05-03 22:14 | 43.82651 | 28.23892 | 35099 ft | 455 kts | 115° |
| 2026-05-03 22:14 | 43.79928 | 28.31814 | 35095 ft | 457 kts | 116° |
| 2026-05-03 22:15 | 43.77171 | 28.39767 | 35095 ft | 457 kts | 116° |
| 2026-05-03 22:15 | 43.74408 | 28.47676 | 35095 ft | 457 kts | 117° |
| 2026-05-03 22:16 | 43.71250 | 28.55210 | 35094 ft | 456 kts | 124° |
| 2026-05-03 22:16 | 43.67822 | 28.62534 | 35095 ft | 456 kts | 123° |
| 2026-05-03 22:17 | 43.64424 | 28.69936 | 35094 ft | 456 kts | 123° |
| 2026-05-03 22:17 | 43.61013 | 28.77322 | 35096 ft | 456 kts | 123° |
| 2026-05-03 22:18 | 43.57591 | 28.84692 | 35084 ft | 456 kts | 123° |
| 2026-05-03 22:18 | 43.54180 | 28.92031 | 35085 ft | 454 kts | 123° |
| 2026-05-03 22:19 | 43.50772 | 28.99344 | 35076 ft | 453 kts | 123° |
| 2026-05-03 22:19 | 43.47345 | 29.06660 | 35067 ft | 455 kts | 124° |
| 2026-05-03 22:20 | 43.43935 | 29.13947 | 35067 ft | 450 kts | 124° |
| 2026-05-03 22:20 | 43.40541 | 29.21189 | 35061 ft | 451 kts | 124° |
| 2026-05-03 22:21 | 43.37130 | 29.28422 | 35057 ft | 451 kts | 124° |
| 2026-05-03 22:21 | 43.33719 | 29.35650 | 35056 ft | 451 kts | 124° |
| 2026-05-03 22:22 | 43.30322 | 29.42835 | 35063 ft | 449 kts | 125° |
| 2026-05-03 22:22 | 43.26916 | 29.50008 | 35044 ft | 448 kts | 124° |
| 2026-05-03 22:23 | 43.23516 | 29.57161 | 35039 ft | 447 kts | 125° |
| 2026-05-03 22:23 | 43.20113 | 29.64297 | 35029 ft | 447 kts | 125° |
| 2026-05-03 22:24 | 43.16713 | 29.71413 | 35014 ft | 446 kts | 125° |
| 2026-05-03 22:24 | 43.13309 | 29.78530 | 35016 ft | 447 kts | 125° |
| 2026-05-03 22:25 | 43.09895 | 29.85644 | 35016 ft | 448 kts | 125° |
| 2026-05-03 22:25 | 43.06470 | 29.92752 | 35023 ft | 446 kts | 125° |
| 2026-05-03 22:26 | 43.03060 | 29.99819 | 35020 ft | 445 kts | 125° |
| 2026-05-03 22:26 | 42.99667 | 30.06827 | 35010 ft | 445 kts | 125° |
| 2026-05-03 22:27 | 42.96259 | 30.13897 | 35009 ft | 446 kts | 125° |
| 2026-05-03 22:27 | 42.92841 | 30.20913 | 35002 ft | 438 kts | 126° |
| 2026-05-03 22:28 | 42.89478 | 30.27811 | 34998 ft | 438 kts | 126° |
| 2026-05-03 22:28 | 42.86098 | 30.34739 | 34994 ft | 439 kts | 126° |
| 2026-05-03 22:29 | 42.82718 | 30.41647 | 34990 ft | 439 kts | 126° |
| 2026-05-03 22:29 | 42.79354 | 30.48502 | 34979 ft | 430 kts | 126° |
| 2026-05-03 22:30 | 42.76078 | 30.55328 | 34976 ft | 434 kts | 122° |
| 2026-05-03 22:30 | 42.73761 | 30.62932 | 34973 ft | 439 kts | 109° |
| 2026-05-03 22:31 | 42.72694 | 30.71164 | 34970 ft | 444 kts | 102° |
| 2026-05-03 22:31 | 42.71908 | 30.79402 | 34966 ft | 439 kts | 103° |
| 2026-05-03 22:32 | 42.71059 | 30.87620 | 34961 ft | 440 kts | 103° |
| 2026-05-03 22:32 | 42.70212 | 30.95821 | 34955 ft | 440 kts | 103° |
| 2026-05-03 22:33 | 42.69360 | 31.04051 | 34953 ft | 440 kts | 103° |
| 2026-05-03 22:33 | 42.68501 | 31.12264 | 34946 ft | 437 kts | 103° |
| 2026-05-03 22:34 | 42.67650 | 31.20396 | 34946 ft | 434 kts | 103° |
| 2026-05-03 22:34 | 42.66785 | 31.28528 | 34937 ft | 435 kts | 103° |
| 2026-05-03 22:35 | 42.65924 | 31.36655 | 34922 ft | 434 kts | 103° |
| 2026-05-03 22:35 | 42.65055 | 31.44736 | 34933 ft | 432 kts | 104° |
| 2026-05-03 22:36 | 42.64185 | 31.52763 | 34931 ft | 426 kts | 104° |
| 2026-05-03 22:36 | 42.63316 | 31.60730 | 34928 ft | 427 kts | 104° |
| 2026-05-03 22:37 | 42.62441 | 31.68708 | 34923 ft | 427 kts | 104° |
| 2026-05-03 22:37 | 42.61564 | 31.76682 | 34923 ft | 427 kts | 104° |
| 2026-05-03 22:38 | 42.60675 | 31.84653 | 34912 ft | 426 kts | 104° |
| 2026-05-03 22:38 | 42.59788 | 31.92558 | 34914 ft | 424 kts | 104° |
| 2026-05-03 22:39 | 42.58909 | 32.00420 | 34912 ft | 424 kts | 104° |
| 2026-05-03 22:39 | 42.58028 | 32.08328 | 34912 ft | 424 kts | 104° |
| 2026-05-03 22:40 | 42.57133 | 32.16231 | 34903 ft | 423 kts | 105° |
| 2026-05-03 22:40 | 42.56221 | 32.24132 | 34916 ft | 424 kts | 104° |
| 2026-05-03 22:41 | 42.55311 | 32.32037 | 34921 ft | 424 kts | 105° |
| 2026-05-03 22:41 | 42.54392 | 32.39935 | 34914 ft | 424 kts | 105° |
| 2026-05-03 22:42 | 42.53467 | 32.47831 | 34902 ft | 425 kts | 105° |
| 2026-05-03 22:42 | 42.52539 | 32.55749 | 34885 ft | 425 kts | 105° |
| 2026-05-03 22:43 | 42.51600 | 32.63664 | 34899 ft | 425 kts | 105° |
| 2026-05-03 22:43 | 42.50659 | 32.71577 | 34888 ft | 426 kts | 105° |
| 2026-05-03 22:44 | 42.49711 | 32.79492 | 34889 ft | 426 kts | 105° |
| 2026-05-03 22:44 | 42.48760 | 32.87402 | 34889 ft | 425 kts | 105° |
| 2026-05-03 22:45 | 42.47803 | 32.95296 | 34879 ft | 425 kts | 105° |
| 2026-05-03 22:45 | 42.46840 | 33.03186 | 34871 ft | 424 kts | 105° |
| 2026-05-03 22:46 | 42.45876 | 33.11075 | 34871 ft | 424 kts | 105° |
| 2026-05-03 22:46 | 42.44906 | 33.18955 | 34879 ft | 424 kts | 105° |
| 2026-05-03 22:47 | 42.43925 | 33.26834 | 34875 ft | 424 kts | 105° |
| 2026-05-03 22:47 | 42.42931 | 33.34706 | 34872 ft | 424 kts | 104° |
| 2026-05-03 22:48 | 42.41943 | 33.42558 | 34866 ft | 423 kts | 104° |
| 2026-05-03 22:48 | 42.40954 | 33.50406 | 34859 ft | 423 kts | 104° |
| 2026-05-03 22:49 | 42.39958 | 33.58259 | 34855 ft | 424 kts | 104° |
| 2026-05-03 22:49 | 42.38960 | 33.66068 | 34858 ft | 424 kts | 104° |
| 2026-05-03 22:50 | 42.37952 | 33.73920 | 34854 ft | 424 kts | 104° |
| 2026-05-03 22:50 | 42.36942 | 33.81746 | 34857 ft | 424 kts | 104° |
| 2026-05-03 22:51 | 42.35921 | 33.89610 | 34860 ft | 425 kts | 104° |
| 2026-05-03 22:51 | 42.34901 | 33.97475 | 34860 ft | 425 kts | 104° |
| 2026-05-03 22:52 | 42.33870 | 34.05344 | 34864 ft | 425 kts | 104° |
| 2026-05-03 22:52 | 42.32833 | 34.13212 | 34863 ft | 425 kts | 104° |
| 2026-05-03 22:53 | 42.31798 | 34.21076 | 34861 ft | 425 kts | 104° |
| 2026-05-03 22:53 | 42.30751 | 34.28937 | 34861 ft | 425 kts | 105° |
| 2026-05-03 22:54 | 42.29696 | 34.36781 | 34850 ft | 424 kts | 104° |
| 2026-05-03 22:54 | 42.28639 | 34.44619 | 34848 ft | 424 kts | 104° |
| 2026-05-03 22:55 | 42.27578 | 34.52470 | 34832 ft | 425 kts | 105° |
| 2026-05-03 22:55 | 42.26507 | 34.60331 | 34834 ft | 426 kts | 105° |
| 2026-05-03 22:56 | 42.25613 | 34.66879 | 34837 ft | 427 kts | 104° |
| 2026-05-03 22:56 | 42.24534 | 34.74752 | 34838 ft | 427 kts | 105° |
| 2026-05-03 22:57 | 42.23449 | 34.82631 | 34841 ft | 427 kts | 104° |
| 2026-05-03 22:57 | 42.22354 | 34.90506 | 34835 ft | 427 kts | 105° |
| 2026-05-03 22:58 | 42.21245 | 34.98386 | 34832 ft | 427 kts | 105° |
| 2026-05-03 22:58 | 42.20134 | 35.06270 | 34820 ft | 428 kts | 105° |
| 2026-05-03 22:59 | 42.19024 | 35.14154 | 34820 ft | 428 kts | 105° |
| 2026-05-03 22:59 | 42.17897 | 35.22045 | 34832 ft | 429 kts | 105° |
| 2026-05-03 23:00 | 42.16768 | 35.29942 | 34834 ft | 429 kts | 105° |
| 2026-05-03 23:00 | 42.15636 | 35.37840 | 34830 ft | 429 kts | 105° |
| 2026-05-03 23:01 | 42.14496 | 35.45731 | 34824 ft | 429 kts | 105° |
| 2026-05-03 23:01 | 42.13346 | 35.53630 | 34804 ft | 430 kts | 105° |
| 2026-05-03 23:02 | 42.12197 | 35.61556 | 34812 ft | 432 kts | 105° |
| 2026-05-03 23:02 | 42.11041 | 35.69499 | 34809 ft | 432 kts | 105° |
| 2026-05-03 23:03 | 42.09870 | 35.77447 | 34793 ft | 433 kts | 105° |
| 2026-05-03 23:03 | 42.08699 | 35.85409 | 34805 ft | 434 kts | 105° |
| 2026-05-03 23:04 | 42.07514 | 35.93391 | 34813 ft | 435 kts | 105° |
| 2026-05-03 23:04 | 42.06322 | 36.01377 | 34817 ft | 436 kts | 105° |
| 2026-05-03 23:05 | 42.05121 | 36.09369 | 34813 ft | 436 kts | 105° |
| 2026-05-03 23:05 | 42.03917 | 36.17366 | 34808 ft | 436 kts | 105° |
| 2026-05-03 23:06 | 42.02705 | 36.25364 | 34809 ft | 436 kts | 105° |
| 2026-05-03 23:06 | 42.01485 | 36.33359 | 34810 ft | 436 kts | 105° |
| 2026-05-03 23:07 | 42.00261 | 36.41349 | 34813 ft | 436 kts | 105° |
| 2026-05-03 23:07 | 41.99035 | 36.49336 | 34785 ft | 437 kts | 105° |
| 2026-05-03 23:08 | 41.97803 | 36.57347 | 34795 ft | 438 kts | 105° |
| 2026-05-03 23:08 | 41.96558 | 36.65376 | 34802 ft | 439 kts | 106° |
| 2026-05-03 23:09 | 41.95311 | 36.73354 | 34810 ft | 440 kts | 106° |
| 2026-05-03 23:09 | 41.94045 | 36.81401 | 34797 ft | 441 kts | 106° |
| 2026-05-03 23:10 | 41.92779 | 36.89455 | 34808 ft | 441 kts | 106° |
| 2026-05-03 23:10 | 41.91503 | 36.97514 | 34809 ft | 441 kts | 106° |
| 2026-05-03 23:11 | 41.90423 | 37.05641 | 34811 ft | 445 kts | 99° |
| 2026-05-03 23:11 | 41.90249 | 37.13985 | 34811 ft | 448 kts | 95° |
| 2026-05-03 23:12 | 41.90139 | 37.22343 | 34806 ft | 448 kts | 96° |
| 2026-05-03 23:12 | 41.90019 | 37.30699 | 34789 ft | 448 kts | 96° |
| 2026-05-03 23:13 | 41.89883 | 37.39087 | 34790 ft | 450 kts | 96° |
| 2026-05-03 23:13 | 41.89743 | 37.47496 | 34799 ft | 451 kts | 96° |
| 2026-05-03 23:14 | 41.89589 | 37.55925 | 34803 ft | 452 kts | 96° |
| 2026-05-03 23:14 | 41.89436 | 37.64355 | 34795 ft | 452 kts | 96° |
| 2026-05-03 23:15 | 41.89277 | 37.72797 | 34796 ft | 453 kts | 96° |
| 2026-05-03 23:15 | 41.89113 | 37.81242 | 34809 ft | 453 kts | 96° |
| 2026-05-03 23:16 | 41.88944 | 37.89683 | 34785 ft | 453 kts | 96° |
| 2026-05-03 23:16 | 41.88769 | 37.98149 | 34776 ft | 454 kts | 96° |
| 2026-05-03 23:17 | 41.88582 | 38.06629 | 34788 ft | 455 kts | 96° |
| 2026-05-03 23:17 | 41.88391 | 38.15116 | 34791 ft | 455 kts | 96° |
| 2026-05-03 23:18 | 41.88192 | 38.23618 | 34796 ft | 456 kts | 96° |
| 2026-05-03 23:18 | 41.87990 | 38.32122 | 34799 ft | 456 kts | 96° |
| 2026-05-03 23:19 | 41.87782 | 38.40577 | 34799 ft | 456 kts | 96° |
| 2026-05-03 23:19 | 41.87562 | 38.49137 | 34785 ft | 456 kts | 96° |
| 2026-05-03 23:20 | 41.87337 | 38.57584 | 34792 ft | 456 kts | 96° |
| 2026-05-03 23:20 | 41.87107 | 38.66092 | 34794 ft | 456 kts | 96° |
| 2026-05-03 23:21 | 41.86872 | 38.74600 | 34790 ft | 456 kts | 96° |
| 2026-05-03 23:21 | 41.86631 | 38.83104 | 34789 ft | 456 kts | 97° |
| 2026-05-03 23:22 | 41.86256 | 38.95865 | 34783 ft | 457 kts | 97° |
| 2026-05-03 23:22 | 41.85999 | 39.04386 | 34787 ft | 457 kts | 97° |
| 2026-05-03 23:23 | 41.85725 | 39.12933 | 34777 ft | 459 kts | 97° |
| 2026-05-03 23:23 | 41.85455 | 39.21487 | 34781 ft | 459 kts | 97° |
| 2026-05-03 23:24 | 41.85177 | 39.30054 | 34776 ft | 460 kts | 97° |
| 2026-05-03 23:24 | 41.84894 | 39.38624 | 34779 ft | 461 kts | 97° |
| 2026-05-03 23:25 | 41.84603 | 39.47207 | 34785 ft | 461 kts | 97° |
| 2026-05-03 23:25 | 41.84311 | 39.55787 | 34784 ft | 461 kts | 97° |
| 2026-05-03 23:26 | 41.84003 | 39.64373 | 34779 ft | 461 kts | 97° |
| 2026-05-03 23:26 | 41.83687 | 39.72956 | 34778 ft | 463 kts | 97° |
| 2026-05-03 23:27 | 41.83368 | 39.81610 | 34778 ft | 465 kts | 97° |
| 2026-05-03 23:27 | 41.83042 | 39.90262 | 34770 ft | 465 kts | 97° |
| 2026-05-03 23:28 | 41.82711 | 39.98914 | 34773 ft | 464 kts | 97° |
| 2026-05-03 23:28 | 41.82373 | 40.07558 | 34775 ft | 464 kts | 97° |
| 2026-05-03 23:29 | 41.82029 | 40.16144 | 34757 ft | 464 kts | 97° |
| 2026-05-03 23:29 | 41.81677 | 40.24796 | 34741 ft | 465 kts | 98° |
| 2026-05-03 23:30 | 41.81313 | 40.33529 | 34773 ft | 472 kts | 98° |
| 2026-05-03 23:30 | 41.80943 | 40.42297 | 34771 ft | 471 kts | 98° |
| 2026-05-03 23:31 | 41.80562 | 40.51061 | 34767 ft | 471 kts | 98° |
| 2026-05-03 23:31 | 41.80193 | 40.59826 | 34764 ft | 472 kts | 96° |
| 2026-05-03 23:32 | 41.80694 | 40.68660 | 34764 ft | 480 kts | 84° |
| 2026-05-03 23:32 | 41.82377 | 40.77365 | 34753 ft | 484 kts | 78° |
| 2026-05-03 23:33 | 41.84208 | 40.86047 | 34761 ft | 484 kts | 79° |
| 2026-05-03 23:33 | 41.86012 | 40.94755 | 34764 ft | 485 kts | 79° |
| 2026-05-03 23:34 | 41.87819 | 41.03473 | 34767 ft | 485 kts | 79° |
| 2026-05-03 23:34 | 41.89612 | 41.12191 | 34756 ft | 485 kts | 79° |
| 2026-05-03 23:35 | 41.91403 | 41.20918 | 34765 ft | 485 kts | 78° |
| 2026-05-03 23:35 | 41.93203 | 41.29647 | 34764 ft | 486 kts | 78° |
| 2026-05-03 23:36 | 41.94989 | 41.38404 | 34775 ft | 486 kts | 78° |
| 2026-05-03 23:36 | 41.96764 | 41.47162 | 34746 ft | 486 kts | 78° |
| 2026-05-03 23:37 | 41.98542 | 41.55972 | 34760 ft | 491 kts | 78° |
| 2026-05-03 23:37 | 42.00324 | 41.64823 | 34759 ft | 490 kts | 78° |
| 2026-05-03 23:38 | 42.02091 | 41.73668 | 34754 ft | 490 kts | 78° |
| 2026-05-03 23:38 | 42.03844 | 41.82526 | 34726 ft | 490 kts | 78° |
| 2026-05-03 23:39 | 42.05607 | 41.91413 | 34742 ft | 490 kts | 78° |
| 2026-05-03 23:39 | 42.07368 | 42.00276 | 34732 ft | 490 kts | 78° |
| 2026-05-03 23:40 | 42.09113 | 42.09144 | 34720 ft | 490 kts | 78° |
| 2026-05-03 23:40 | 42.10842 | 42.17955 | 34690 ft | 490 kts | 78° |
| 2026-05-03 23:41 | 42.12579 | 42.26884 | 34756 ft | 494 kts | 78° |
| 2026-05-03 23:41 | 42.14036 | 42.34379 | 34777 ft | 494 kts | 78° |
| 2026-05-03 23:42 | 42.16056 | 42.44779 | 34768 ft | 493 kts | 78° |
| 2026-05-03 23:42 | 42.17770 | 42.53730 | 34780 ft | 493 kts | 78° |
| 2026-05-03 23:43 | 42.19207 | 42.61229 | 34671 ft | 493 kts | 79° |
| 2026-05-03 23:43 | 42.20902 | 42.70129 | 34680 ft | 493 kts | 78° |
| 2026-05-03 23:44 | 42.22597 | 42.79083 | 34677 ft | 493 kts | 78° |
| 2026-05-03 23:44 | 42.24291 | 42.88041 | 34703 ft | 493 kts | 79° |
| 2026-05-03 23:45 | 42.25974 | 42.97016 | 34743 ft | 493 kts | 79° |
| 2026-05-03 23:45 | 42.26851 | 43.06084 | 34732 ft | 484 kts | 97° |
| 2026-05-03 23:46 | 42.26386 | 43.10549 | 34738 ft | 478 kts | 108° |
| 2026-05-03 23:46 | 42.25344 | 43.14782 | 34779 ft | 472 kts | 118° |
| 2026-05-03 23:46 | 42.22684 | 43.22871 | 34774 ft | 472 kts | 117° |
| 2026-05-03 23:47 | 42.20062 | 43.30987 | 34782 ft | 472 kts | 117° |
| 2026-05-03 23:47 | 42.17436 | 43.39086 | 34797 ft | 472 kts | 117° |
| 2026-05-03 23:48 | 42.14797 | 43.47175 | 34787 ft | 471 kts | 117° |
| 2026-05-03 23:48 | 42.12159 | 43.55265 | 34803 ft | 472 kts | 118° |
| 2026-05-03 23:49 | 42.09481 | 43.63347 | 34825 ft | 471 kts | 121° |
| 2026-05-03 23:49 | 42.06091 | 43.70821 | 34847 ft | 467 kts | 128° |
| 2026-05-03 23:50 | 42.02470 | 43.78012 | 34838 ft | 467 kts | 128° |
| 2026-05-03 23:50 | 41.98837 | 43.85269 | 34859 ft | 468 kts | 128° |
| 2026-05-03 23:51 | 41.95194 | 43.92529 | 34881 ft | 468 kts | 128° |
| 2026-05-03 23:51 | 41.91550 | 43.99776 | 34878 ft | 468 kts | 128° |
| 2026-05-03 23:52 | 41.87894 | 44.07020 | 34892 ft | 468 kts | 128° |
| 2026-05-03 23:52 | 41.84229 | 44.14252 | 34905 ft | 469 kts | 128° |
| 2026-05-03 23:53 | 41.80559 | 44.21501 | 34928 ft | 470 kts | 128° |
| 2026-05-03 23:53 | 41.76887 | 44.28739 | 34941 ft | 469 kts | 128° |
| 2026-05-03 23:54 | 41.73200 | 44.35957 | 34950 ft | 470 kts | 128° |
| 2026-05-03 23:54 | 41.69508 | 44.43198 | 34971 ft | 471 kts | 128° |
| 2026-05-03 23:55 | 41.65814 | 44.50431 | 34979 ft | 471 kts | 129° |
| 2026-05-03 23:55 | 41.62108 | 44.57652 | 34990 ft | 471 kts | 129° |
| 2026-05-03 23:56 | 41.58422 | 44.64816 | 34995 ft | 471 kts | 129° |
| 2026-05-03 23:56 | 41.54711 | 44.72014 | 34999 ft | 470 kts | 129° |
| 2026-05-03 23:57 | 41.51001 | 44.79207 | 34996 ft | 470 kts | 129° |
| 2026-05-03 23:57 | 41.47279 | 44.86380 | 34987 ft | 470 kts | 129° |
| 2026-05-03 23:58 | 41.43561 | 44.93546 | 34960 ft | 470 kts | 129° |
| 2026-05-03 23:58 | 41.39833 | 45.00709 | 34973 ft | 470 kts | 129° |
| 2026-05-03 23:59 | 41.36297 | 45.08049 | 34967 ft | 474 kts | 121° |
| 2026-05-03 23:59 | 41.33809 | 45.16240 | 34969 ft | 480 kts | 112° |
| 2026-05-04 00:00 | 41.31679 | 45.24688 | 34976 ft | 484 kts | 113° |
| 2026-05-04 00:00 | 41.29494 | 45.33169 | 34974 ft | 484 kts | 113° |
| 2026-05-04 00:01 | 41.27305 | 45.41636 | 34968 ft | 484 kts | 113° |
| 2026-05-04 00:01 | 41.25114 | 45.50099 | 34969 ft | 484 kts | 113° |
| 2026-05-04 00:02 | 41.22903 | 45.58582 | 34974 ft | 487 kts | 113° |
| 2026-05-04 00:02 | 41.20686 | 45.67096 | 34977 ft | 488 kts | 113° |
| 2026-05-04 00:03 | 41.18450 | 45.75598 | 34978 ft | 488 kts | 113° |
| 2026-05-04 00:03 | 41.16212 | 45.84100 | 34964 ft | 488 kts | 114° |
| 2026-05-04 00:04 | 41.13974 | 45.92546 | 34976 ft | 489 kts | 114° |
| 2026-05-04 00:04 | 41.11711 | 46.01055 | 34981 ft | 489 kts | 113° |
| 2026-05-04 00:05 | 41.09443 | 46.09568 | 34982 ft | 489 kts | 114° |
| 2026-05-04 00:05 | 41.07173 | 46.18079 | 34979 ft | 490 kts | 114° |
| 2026-05-04 00:06 | 41.04877 | 46.26590 | 34975 ft | 491 kts | 114° |
| 2026-05-04 00:06 | 41.02586 | 46.35123 | 34982 ft | 492 kts | 114° |
| 2026-05-04 00:07 | 41.00304 | 46.43679 | 34975 ft | 493 kts | 114° |
| 2026-05-04 00:07 | 40.98011 | 46.52257 | 34969 ft | 495 kts | 114° |
| 2026-05-04 00:08 | 40.95699 | 46.60844 | 34987 ft | 496 kts | 114° |
| 2026-05-04 00:08 | 40.93377 | 46.69443 | 34986 ft | 497 kts | 114° |
| 2026-05-04 00:09 | 40.91046 | 46.78042 | 34967 ft | 498 kts | 114° |
| 2026-05-04 00:09 | 40.88696 | 46.86669 | 34972 ft | 499 kts | 114° |
| 2026-05-04 00:10 | 40.86345 | 46.95248 | 34994 ft | 500 kts | 114° |
| 2026-05-04 00:10 | 40.83971 | 47.03885 | 34990 ft | 501 kts | 114° |
| 2026-05-04 00:11 | 40.81581 | 47.12541 | 34971 ft | 503 kts | 114° |
| 2026-05-04 00:11 | 40.79175 | 47.21212 | 34974 ft | 504 kts | 114° |
| 2026-05-04 00:12 | 40.76744 | 47.29884 | 34987 ft | 504 kts | 114° |
| 2026-05-04 00:12 | 40.74307 | 47.38578 | 34979 ft | 504 kts | 114° |
| 2026-05-04 00:13 | 40.71867 | 47.47255 | 34990 ft | 505 kts | 114° |
| 2026-05-04 00:13 | 40.69416 | 47.55944 | 34997 ft | 506 kts | 114° |
| 2026-05-04 00:14 | 40.66969 | 47.64633 | 35001 ft | 506 kts | 114° |
| 2026-05-04 00:14 | 40.64508 | 47.73317 | 35002 ft | 506 kts | 114° |
| 2026-05-04 00:15 | 40.62064 | 47.81938 | 35004 ft | 506 kts | 114° |
| 2026-05-04 00:15 | 40.59584 | 47.90600 | 35002 ft | 506 kts | 115° |
| 2026-05-04 00:16 | 40.57163 | 47.99303 | 34994 ft | 508 kts | 112° |
| 2026-05-04 00:16 | 40.55042 | 48.08172 | 34992 ft | 509 kts | 111° |
| 2026-05-04 00:17 | 40.52909 | 48.17036 | 34996 ft | 509 kts | 111° |
| 2026-05-04 00:17 | 40.50738 | 48.25872 | 34988 ft | 508 kts | 111° |
| 2026-05-04 00:18 | 40.48556 | 48.34709 | 34989 ft | 509 kts | 111° |
| 2026-05-04 00:18 | 40.46359 | 48.43554 | 34997 ft | 510 kts | 111° |
| 2026-05-04 00:19 | 40.44157 | 48.52411 | 34997 ft | 510 kts | 111° |
| 2026-05-04 00:19 | 40.41942 | 48.61264 | 34997 ft | 511 kts | 111° |
| 2026-05-04 00:20 | 40.39709 | 48.70132 | 34998 ft | 512 kts | 112° |
| 2026-05-04 00:20 | 40.37472 | 48.79008 | 35001 ft | 513 kts | 112° |
| 2026-05-04 00:21 | 40.35230 | 48.87882 | 35022 ft | 513 kts | 112° |
| 2026-05-04 00:21 | 40.32974 | 48.96767 | 35018 ft | 514 kts | 112° |
| 2026-05-04 00:22 | 40.30709 | 49.05658 | 35023 ft | 515 kts | 112° |
| 2026-05-04 00:22 | 40.28421 | 49.14546 | 35025 ft | 515 kts | 112° |
| 2026-05-04 00:23 | 40.26116 | 49.23423 | 35013 ft | 515 kts | 112° |
| 2026-05-04 00:23 | 40.23810 | 49.32323 | 35021 ft | 516 kts | 112° |
| 2026-05-04 00:24 | 40.21501 | 49.41224 | 35027 ft | 517 kts | 112° |
| 2026-05-04 00:24 | 40.19280 | 49.50114 | 35011 ft | 519 kts | 107° |
| 2026-05-04 00:25 | 40.18136 | 49.59490 | 35010 ft | 524 kts | 98° |
| 2026-05-04 00:25 | 40.17299 | 49.68969 | 35029 ft | 525 kts | 99° |
| 2026-05-04 00:26 | 40.16416 | 49.78440 | 35027 ft | 525 kts | 99° |
| 2026-05-04 00:26 | 40.15535 | 49.87906 | 35024 ft | 525 kts | 99° |
| 2026-05-04 00:27 | 40.14645 | 49.97381 | 35006 ft | 525 kts | 99° |
| 2026-05-04 00:27 | 40.13737 | 50.06862 | 35022 ft | 526 kts | 99° |
| 2026-05-04 00:28 | 40.12825 | 50.16351 | 35013 ft | 527 kts | 99° |
| 2026-05-04 00:28 | 40.11908 | 50.25836 | 35026 ft | 526 kts | 99° |
| 2026-05-04 00:29 | 40.10984 | 50.35321 | 35014 ft | 526 kts | 99° |
| 2026-05-04 00:29 | 40.10050 | 50.44800 | 35017 ft | 527 kts | 99° |
| 2026-05-04 00:30 | 40.09109 | 50.54294 | 35021 ft | 527 kts | 99° |
| 2026-05-04 00:30 | 40.08158 | 50.63779 | 35022 ft | 527 kts | 99° |
| 2026-05-04 00:31 | 40.07201 | 50.73263 | 35013 ft | 527 kts | 99° |
| 2026-05-04 00:31 | 40.06232 | 50.82746 | 35018 ft | 527 kts | 99° |
| 2026-05-04 00:32 | 40.05260 | 50.92241 | 35022 ft | 527 kts | 99° |
| 2026-05-04 00:32 | 40.04281 | 51.01667 | 35021 ft | 527 kts | 99° |
| 2026-05-04 00:33 | 40.02797 | 51.15887 | 35021 ft | 528 kts | 99° |
| 2026-05-04 00:34 | 40.01787 | 51.25359 | 35025 ft | 527 kts | 99° |
| 2026-05-04 00:34 | 40.00782 | 51.34834 | 35026 ft | 527 kts | 100° |
| 2026-05-04 00:35 | 39.99941 | 51.42703 | 35024 ft | 527 kts | 100° |
| 2026-05-04 00:35 | 39.98765 | 51.52115 | 35002 ft | 525 kts | 106° |
| 2026-05-04 00:36 | 39.97000 | 51.61413 | 35006 ft | 525 kts | 106° |
| 2026-05-04 00:36 | 39.95284 | 51.70670 | 35011 ft | 526 kts | 106° |
| 2026-05-04 00:37 | 39.93561 | 51.79867 | 35009 ft | 526 kts | 106° |
| 2026-05-04 00:37 | 39.91809 | 51.89119 | 34997 ft | 526 kts | 106° |
| 2026-05-04 00:38 | 39.90049 | 51.98379 | 35006 ft | 527 kts | 106° |
| 2026-05-04 00:38 | 39.88285 | 52.07640 | 35006 ft | 527 kts | 106° |
| 2026-05-04 00:39 | 39.86509 | 52.16909 | 35008 ft | 527 kts | 106° |
| 2026-05-04 00:39 | 39.84728 | 52.26162 | 35009 ft | 527 kts | 106° |
| 2026-05-04 00:40 | 39.82946 | 52.35421 | 35006 ft | 527 kts | 107° |
| 2026-05-04 00:40 | 39.81143 | 52.44668 | 35006 ft | 527 kts | 107° |
| 2026-05-04 00:41 | 39.79337 | 52.53913 | 35007 ft | 528 kts | 107° |
| 2026-05-04 00:41 | 39.77522 | 52.63161 | 34995 ft | 528 kts | 107° |
| 2026-05-04 00:42 | 39.75703 | 52.72417 | 35000 ft | 529 kts | 107° |
| 2026-05-04 00:42 | 39.73866 | 52.81673 | 34996 ft | 529 kts | 107° |
| 2026-05-04 00:43 | 39.72053 | 52.90937 | 34993 ft | 529 kts | 106° |
| 2026-05-04 00:43 | 39.70259 | 53.00217 | 34993 ft | 530 kts | 106° |
| 2026-05-04 00:44 | 39.68451 | 53.09488 | 34986 ft | 530 kts | 107° |
| 2026-05-04 00:44 | 39.66642 | 53.18707 | 34985 ft | 529 kts | 107° |
| 2026-05-04 00:45 | 39.64818 | 53.27955 | 34977 ft | 529 kts | 107° |
| 2026-05-04 00:45 | 39.62993 | 53.37204 | 34973 ft | 530 kts | 107° |
| 2026-05-04 00:46 | 39.61141 | 53.46456 | 34980 ft | 530 kts | 107° |
| 2026-05-04 00:46 | 39.59287 | 53.55695 | 34979 ft | 529 kts | 107° |
| 2026-05-04 00:47 | 39.57435 | 53.64937 | 34962 ft | 530 kts | 107° |
| 2026-05-04 00:47 | 39.55573 | 53.74181 | 34975 ft | 530 kts | 107° |
| 2026-05-04 00:48 | 39.53713 | 53.83362 | 34979 ft | 530 kts | 107° |
| 2026-05-04 00:48 | 39.51835 | 53.92595 | 34979 ft | 530 kts | 107° |
| 2026-05-04 00:49 | 39.49949 | 54.01824 | 34975 ft | 530 kts | 107° |
| 2026-05-04 00:49 | 39.48038 | 54.11034 | 34981 ft | 530 kts | 107° |
| 2026-05-04 00:50 | 39.46106 | 54.20235 | 34978 ft | 530 kts | 107° |
| 2026-05-04 00:50 | 39.44178 | 54.29438 | 34972 ft | 530 kts | 107° |
| 2026-05-04 00:51 | 39.42242 | 54.38639 | 34975 ft | 530 kts | 107° |
| 2026-05-04 00:51 | 39.40294 | 54.47831 | 34986 ft | 530 kts | 107° |
| 2026-05-04 00:52 | 39.38338 | 54.57024 | 35001 ft | 530 kts | 107° |
| 2026-05-04 00:52 | 39.36378 | 54.66207 | 35000 ft | 530 kts | 107° |
| 2026-05-04 00:53 | 39.34412 | 54.75375 | 34996 ft | 529 kts | 107° |
| 2026-05-04 00:53 | 39.32442 | 54.84539 | 34994 ft | 529 kts | 107° |
| 2026-05-04 00:54 | 39.30463 | 54.93696 | 34996 ft | 530 kts | 107° |
| 2026-05-04 00:54 | 39.28486 | 55.02793 | 34998 ft | 530 kts | 107° |
| 2026-05-04 00:55 | 39.26487 | 55.11954 | 34998 ft | 530 kts | 107° |
| 2026-05-04 00:55 | 39.24486 | 55.21112 | 34999 ft | 531 kts | 107° |
| 2026-05-04 00:56 | 39.22475 | 55.30261 | 34998 ft | 530 kts | 107° |
| 2026-05-04 00:56 | 39.20456 | 55.39397 | 35001 ft | 530 kts | 107° |
| 2026-05-04 00:57 | 39.18432 | 55.48529 | 35001 ft | 530 kts | 107° |
| 2026-05-04 00:57 | 39.16405 | 55.57639 | 34995 ft | 526 kts | 107° |
| 2026-05-04 00:58 | 39.14379 | 55.66691 | 35000 ft | 529 kts | 107° |
| 2026-05-04 00:58 | 39.12331 | 55.75804 | 35003 ft | 529 kts | 107° |
| 2026-05-04 00:59 | 39.10293 | 55.84864 | 34994 ft | 523 kts | 107° |
| 2026-05-04 00:59 | 39.08247 | 55.93857 | 34994 ft | 525 kts | 107° |
| 2026-05-04 01:00 | 39.06188 | 56.02891 | 34992 ft | 528 kts | 107° |
| 2026-05-04 01:00 | 39.04126 | 56.11957 | 34988 ft | 528 kts | 107° |
| 2026-05-04 01:01 | 39.02050 | 56.21009 | 34991 ft | 527 kts | 107° |
| 2026-05-04 01:01 | 38.99958 | 56.30041 | 34990 ft | 527 kts | 109° |
| 2026-05-04 01:02 | 38.97527 | 56.38891 | 34986 ft | 525 kts | 110° |
| 2026-05-04 01:02 | 38.95106 | 56.47740 | 34987 ft | 525 kts | 110° |
| 2026-05-04 01:03 | 38.92677 | 56.56585 | 34981 ft | 524 kts | 110° |
| 2026-05-04 01:03 | 38.90236 | 56.65404 | 34975 ft | 524 kts | 110° |
| 2026-05-04 01:04 | 38.87791 | 56.74219 | 34974 ft | 524 kts | 110° |
| 2026-05-04 01:04 | 38.85343 | 56.83035 | 34981 ft | 525 kts | 110° |
| 2026-05-04 01:05 | 38.82894 | 56.91803 | 34976 ft | 520 kts | 110° |
| 2026-05-04 01:05 | 38.80446 | 57.00564 | 34970 ft | 524 kts | 110° |
| 2026-05-04 01:06 | 38.77982 | 57.09363 | 34965 ft | 524 kts | 110° |
| 2026-05-04 01:06 | 38.75511 | 57.18108 | 34969 ft | 520 kts | 110° |
| 2026-05-04 01:07 | 38.73057 | 57.26771 | 34973 ft | 521 kts | 110° |
| 2026-05-04 01:07 | 38.70567 | 57.35530 | 34976 ft | 524 kts | 110° |
| 2026-05-04 01:08 | 38.68082 | 57.44258 | 34958 ft | 520 kts | 110° |
| 2026-05-04 01:08 | 38.65598 | 57.52962 | 34959 ft | 521 kts | 110° |
| 2026-05-04 01:09 | 38.63100 | 57.61681 | 34968 ft | 523 kts | 111° |
| 2026-05-04 01:09 | 38.60391 | 57.70317 | 34976 ft | 523 kts | 115° |
| 2026-05-04 01:10 | 38.57417 | 57.78808 | 34972 ft | 524 kts | 115° |
| 2026-05-04 01:10 | 38.54447 | 57.87302 | 34975 ft | 523 kts | 115° |
| 2026-05-04 01:11 | 38.51467 | 57.95784 | 34956 ft | 522 kts | 115° |
| 2026-05-04 01:11 | 38.48502 | 58.04210 | 34960 ft | 520 kts | 115° |
| 2026-05-04 01:12 | 38.45527 | 58.12634 | 34959 ft | 521 kts | 115° |
| 2026-05-04 01:12 | 38.42546 | 58.21049 | 34961 ft | 521 kts | 115° |
| 2026-05-04 01:13 | 38.39757 | 58.29572 | 34960 ft | 522 kts | 107° |
| 2026-05-04 01:13 | 38.37944 | 58.38528 | 34961 ft | 522 kts | 103° |
| 2026-05-04 01:14 | 38.36178 | 58.47500 | 34961 ft | 522 kts | 104° |
| 2026-05-04 01:14 | 38.34393 | 58.56397 | 34968 ft | 521 kts | 104° |
| 2026-05-04 01:15 | 38.32590 | 58.65338 | 34960 ft | 522 kts | 104° |
| 2026-05-04 01:15 | 38.30788 | 58.74288 | 34965 ft | 522 kts | 104° |
| 2026-05-04 01:16 | 38.28971 | 58.83231 | 34967 ft | 522 kts | 104° |
| 2026-05-04 01:16 | 38.27151 | 58.92178 | 34970 ft | 522 kts | 104° |
| 2026-05-04 01:17 | 38.25323 | 59.01122 | 34958 ft | 523 kts | 104° |
| 2026-05-04 01:17 | 38.23486 | 59.10066 | 34977 ft | 522 kts | 104° |
| 2026-05-04 01:18 | 38.21649 | 59.18999 | 34983 ft | 522 kts | 104° |
| 2026-05-04 01:18 | 38.19801 | 59.27933 | 34983 ft | 522 kts | 104° |
| 2026-05-04 01:19 | 38.17947 | 59.36847 | 34985 ft | 522 kts | 104° |
| 2026-05-04 01:19 | 38.16082 | 59.45752 | 34975 ft | 522 kts | 104° |
| 2026-05-04 01:20 | 38.14216 | 59.54659 | 34989 ft | 522 kts | 104° |
| 2026-05-04 01:20 | 38.12344 | 59.63558 | 35013 ft | 522 kts | 104° |
| 2026-05-04 01:21 | 38.10464 | 59.72444 | 35010 ft | 520 kts | 104° |
| 2026-05-04 01:21 | 38.08586 | 59.81313 | 34985 ft | 520 kts | 104° |
| 2026-05-04 01:22 | 38.06688 | 59.90184 | 35016 ft | 521 kts | 104° |
| 2026-05-04 01:22 | 38.04806 | 59.98979 | 35018 ft | 520 kts | 104° |
| 2026-05-04 01:23 | 38.02911 | 60.07823 | 35007 ft | 519 kts | 104° |
| 2026-05-04 01:23 | 38.00534 | 60.16448 | 35004 ft | 519 kts | 117° |
| 2026-05-04 01:24 | 37.96411 | 60.23910 | 35007 ft | 517 kts | 135° |
| 2026-05-04 01:24 | 37.92298 | 60.29499 | 35009 ft | 518 kts | 134° |
| 2026-05-04 01:25 | 37.87420 | 60.36208 | 35009 ft | 518 kts | 134° |
| 2026-05-04 01:25 | 37.82538 | 60.42915 | 34990 ft | 518 kts | 134° |
| 2026-05-04 01:26 | 37.77675 | 60.49576 | 35021 ft | 519 kts | 134° |
| 2026-05-04 01:26 | 37.72753 | 60.56251 | 35018 ft | 519 kts | 135° |
| 2026-05-04 01:27 | 37.67673 | 60.62711 | 34998 ft | 519 kts | 136° |
| 2026-05-04 01:27 | 37.62571 | 60.69175 | 35007 ft | 520 kts | 136° |
| 2026-05-04 01:28 | 37.57480 | 60.75659 | 35033 ft | 520 kts | 136° |
| 2026-05-04 01:28 | 37.52389 | 60.82145 | 35014 ft | 521 kts | 136° |
| 2026-05-04 01:29 | 37.47289 | 60.88640 | 35031 ft | 522 kts | 136° |
| 2026-05-04 01:29 | 37.42172 | 60.95131 | 35035 ft | 523 kts | 136° |
| 2026-05-04 01:30 | 37.37050 | 61.01622 | 35020 ft | 523 kts | 136° |
| 2026-05-04 01:30 | 37.31958 | 61.08054 | 35053 ft | 523 kts | 136° |
| 2026-05-04 01:31 | 37.26822 | 61.14529 | 35040 ft | 523 kts | 136° |
| 2026-05-04 01:31 | 37.21722 | 61.20948 | 35031 ft | 523 kts | 136° |
| 2026-05-04 01:32 | 37.16583 | 61.27398 | 35030 ft | 523 kts | 136° |
| 2026-05-04 01:32 | 37.11434 | 61.33837 | 35064 ft | 523 kts | 136° |
| 2026-05-04 01:33 | 37.06280 | 61.40277 | 35046 ft | 523 kts | 136° |
| 2026-05-04 01:33 | 37.01122 | 61.46709 | 35036 ft | 524 kts | 136° |
| 2026-05-04 01:34 | 36.95958 | 61.53135 | 35041 ft | 524 kts | 136° |
| 2026-05-04 01:34 | 36.90785 | 61.59556 | 35042 ft | 524 kts | 136° |
| 2026-05-04 01:35 | 36.85607 | 61.65976 | 35033 ft | 525 kts | 136° |
| 2026-05-04 01:35 | 36.80413 | 61.72405 | 35038 ft | 526 kts | 136° |
| 2026-05-04 01:36 | 36.75216 | 61.78820 | 35044 ft | 526 kts | 136° |
| 2026-05-04 01:36 | 36.70017 | 61.85230 | 35033 ft | 526 kts | 136° |
| 2026-05-04 01:37 | 36.64808 | 61.91638 | 35041 ft | 527 kts | 136° |
| 2026-05-04 01:37 | 36.59593 | 61.98046 | 35053 ft | 526 kts | 136° |
| 2026-05-04 01:38 | 36.54410 | 62.04400 | 35042 ft | 527 kts | 136° |
| 2026-05-04 01:38 | 36.49186 | 62.10785 | 35050 ft | 527 kts | 137° |
| 2026-05-04 01:39 | 36.43959 | 62.17164 | 35047 ft | 527 kts | 137° |
| 2026-05-04 01:39 | 36.38725 | 62.23537 | 35053 ft | 527 kts | 136° |
| 2026-05-04 01:40 | 36.33486 | 62.29901 | 35050 ft | 527 kts | 136° |
| 2026-05-04 01:40 | 36.28246 | 62.36257 | 35054 ft | 527 kts | 136° |
| 2026-05-04 01:41 | 36.23004 | 62.42615 | 35047 ft | 527 kts | 136° |
| 2026-05-04 01:41 | 36.17750 | 62.48969 | 35048 ft | 529 kts | 137° |
| 2026-05-04 01:42 | 36.12481 | 62.55322 | 35061 ft | 529 kts | 136° |
| 2026-05-04 01:42 | 36.07212 | 62.61670 | 35059 ft | 529 kts | 136° |
| 2026-05-04 01:43 | 36.01938 | 62.68005 | 35051 ft | 529 kts | 137° |
| 2026-05-04 01:43 | 35.96658 | 62.74335 | 35052 ft | 529 kts | 137° |
| 2026-05-04 01:44 | 35.91372 | 62.80662 | 35060 ft | 529 kts | 137° |
| 2026-05-04 01:44 | 35.86084 | 62.86978 | 35059 ft | 529 kts | 137° |
| 2026-05-04 01:45 | 35.80794 | 62.93274 | 35062 ft | 529 kts | 137° |
| 2026-05-04 01:45 | 35.72853 | 63.02714 | 35076 ft | 529 kts | 137° |
| 2026-05-04 01:46 | 35.67550 | 63.09008 | 35080 ft | 530 kts | 137° |
| 2026-05-04 01:46 | 35.62280 | 63.15253 | 35093 ft | 530 kts | 137° |
| 2026-05-04 01:47 | 35.57154 | 63.21733 | 35083 ft | 530 kts | 128° |
| 2026-05-04 01:47 | 35.52702 | 63.28903 | 35075 ft | 529 kts | 127° |
| 2026-05-04 01:48 | 35.48221 | 63.36081 | 35078 ft | 530 kts | 128° |
| 2026-05-04 01:48 | 35.43718 | 63.43245 | 35085 ft | 531 kts | 128° |
| 2026-05-04 01:49 | 35.39206 | 63.50413 | 35101 ft | 531 kts | 128° |
| 2026-05-04 01:49 | 35.34695 | 63.57567 | 35086 ft | 531 kts | 128° |
| 2026-05-04 01:50 | 35.30176 | 63.64726 | 35091 ft | 531 kts | 128° |
| 2026-05-04 01:50 | 35.25658 | 63.71885 | 35096 ft | 531 kts | 128° |
| 2026-05-04 01:51 | 35.21149 | 63.79039 | 35090 ft | 529 kts | 128° |
| 2026-05-04 01:51 | 35.16635 | 63.86184 | 35105 ft | 533 kts | 128° |
| 2026-05-04 01:52 | 35.12109 | 63.93336 | 35109 ft | 531 kts | 128° |
| 2026-05-04 01:52 | 35.07631 | 64.00395 | 35110 ft | 532 kts | 128° |
| 2026-05-04 01:53 | 35.03091 | 64.07527 | 35115 ft | 532 kts | 128° |
| 2026-05-04 01:53 | 34.98559 | 64.14648 | 35115 ft | 531 kts | 128° |
| 2026-05-04 01:54 | 34.94025 | 64.21755 | 35109 ft | 531 kts | 128° |
| 2026-05-04 01:54 | 34.89486 | 64.28853 | 35122 ft | 531 kts | 128° |
| 2026-05-04 01:55 | 34.84936 | 64.35959 | 35149 ft | 534 kts | 128° |
| 2026-05-04 01:55 | 34.80381 | 64.43054 | 35131 ft | 531 kts | 128° |
| 2026-05-04 01:56 | 34.75827 | 64.50126 | 35139 ft | 531 kts | 128° |
| 2026-05-04 01:56 | 34.71266 | 64.57193 | 35142 ft | 531 kts | 128° |
| 2026-05-04 01:57 | 34.66690 | 64.64278 | 35160 ft | 534 kts | 128° |
| 2026-05-04 01:57 | 34.62108 | 64.71359 | 35157 ft | 532 kts | 128° |
| 2026-05-04 01:58 | 34.57541 | 64.78397 | 35148 ft | 530 kts | 128° |
| 2026-05-04 01:58 | 34.52977 | 64.85426 | 35142 ft | 530 kts | 128° |
| 2026-05-04 01:59 | 34.48422 | 64.92428 | 35162 ft | 536 kts | 128° |
| 2026-05-04 01:59 | 34.43797 | 64.99498 | 35174 ft | 534 kts | 128° |
| 2026-05-04 02:00 | 34.39189 | 65.06516 | 35169 ft | 533 kts | 128° |
| 2026-05-04 02:00 | 34.34574 | 65.13544 | 35157 ft | 533 kts | 128° |
| 2026-05-04 02:01 | 34.29933 | 65.20595 | 35171 ft | 536 kts | 128° |
| 2026-05-04 02:01 | 34.25289 | 65.27644 | 35174 ft | 536 kts | 128° |
| 2026-05-04 02:02 | 34.20635 | 65.34680 | 35159 ft | 534 kts | 128° |
| 2026-05-04 02:02 | 34.16000 | 65.41673 | 35141 ft | 534 kts | 129° |
| 2026-05-04 02:03 | 34.11342 | 65.48699 | 35147 ft | 536 kts | 128° |
| 2026-05-04 02:03 | 34.06691 | 65.55716 | 35132 ft | 535 kts | 129° |
| 2026-05-04 02:04 | 34.02032 | 65.62724 | 35148 ft | 535 kts | 128° |
| 2026-05-04 02:04 | 33.97385 | 65.69702 | 35122 ft | 532 kts | 129° |
| 2026-05-04 02:05 | 33.92768 | 65.76641 | 35111 ft | 532 kts | 128° |
| 2026-05-04 02:05 | 33.88112 | 65.83616 | 35114 ft | 534 kts | 129° |
| 2026-05-04 02:06 | 33.83453 | 65.90576 | 35113 ft | 534 kts | 129° |
| 2026-05-04 02:06 | 33.78799 | 65.97531 | 35103 ft | 535 kts | 129° |
| 2026-05-04 02:07 | 33.74144 | 66.04445 | 35097 ft | 535 kts | 129° |
| 2026-05-04 02:07 | 33.69478 | 66.11386 | 35089 ft | 534 kts | 129° |
| 2026-05-04 02:08 | 33.64798 | 66.18326 | 35080 ft | 536 kts | 129° |
| 2026-05-04 02:08 | 33.60102 | 66.25275 | 35100 ft | 537 kts | 129° |
| 2026-05-04 02:09 | 33.55405 | 66.32209 | 35067 ft | 535 kts | 129° |
| 2026-05-04 02:09 | 33.50722 | 66.39121 | 35064 ft | 534 kts | 129° |
| 2026-05-04 02:10 | 33.46033 | 66.46022 | 35048 ft | 534 kts | 129° |
| 2026-05-04 02:10 | 33.41328 | 66.52904 | 35066 ft | 535 kts | 129° |
| 2026-05-04 02:11 | 33.36599 | 66.59815 | 35078 ft | 536 kts | 129° |
| 2026-05-04 02:11 | 33.31886 | 66.66674 | 35081 ft | 534 kts | 129° |
| 2026-05-04 02:12 | 33.27165 | 66.73535 | 35074 ft | 534 kts | 129° |
| 2026-05-04 02:12 | 33.22437 | 66.80395 | 35082 ft | 536 kts | 129° |
| 2026-05-04 02:13 | 33.17700 | 66.87265 | 35079 ft | 536 kts | 129° |
| 2026-05-04 02:13 | 33.12959 | 66.94116 | 35081 ft | 535 kts | 129° |
| 2026-05-04 02:14 | 33.08253 | 67.00913 | 35072 ft | 534 kts | 129° |
| 2026-05-04 02:14 | 33.03512 | 67.07735 | 35027 ft | 535 kts | 129° |
| 2026-05-04 02:15 | 32.99531 | 67.13454 | 35039 ft | 535 kts | 129° |
| 2026-05-04 02:15 | 32.94776 | 67.20283 | 34999 ft | 536 kts | 129° |
| 2026-05-04 02:16 | 32.90004 | 67.27123 | 35002 ft | 538 kts | 129° |
| 2026-05-04 02:16 | 32.85222 | 67.33969 | 34959 ft | 538 kts | 130° |
| 2026-05-04 02:17 | 32.80408 | 67.40841 | 34976 ft | 542 kts | 129° |
| 2026-05-04 02:17 | 32.75570 | 67.47697 | 34982 ft | 542 kts | 131° |
| 2026-05-04 02:18 | 32.70571 | 67.54389 | 34976 ft | 542 kts | 132° |
| 2026-05-04 02:18 | 32.65631 | 67.60951 | 34939 ft | 536 kts | 131° |
| 2026-05-04 02:19 | 32.60694 | 67.67562 | 34974 ft | 536 kts | 131° |
| 2026-05-04 02:19 | 32.55747 | 67.74175 | 34974 ft | 536 kts | 131° |
| 2026-05-04 02:20 | 32.50804 | 67.80777 | 34975 ft | 536 kts | 131° |
| 2026-05-04 02:20 | 32.45979 | 67.87502 | 34952 ft | 536 kts | 129° |
| 2026-05-04 02:21 | 32.41285 | 67.94356 | 34970 ft | 537 kts | 129° |
| 2026-05-04 02:21 | 32.36552 | 68.01185 | 34969 ft | 537 kts | 129° |
| 2026-05-04 02:22 | 32.31800 | 68.08000 | 34976 ft | 538 kts | 129° |
| 2026-05-04 02:22 | 32.27030 | 68.14814 | 34980 ft | 538 kts | 129° |
| 2026-05-04 02:23 | 32.22251 | 68.21624 | 34963 ft | 540 kts | 129° |
| 2026-05-04 02:23 | 32.17452 | 68.28451 | 34964 ft | 540 kts | 130° |
| 2026-05-04 02:24 | 32.12651 | 68.35273 | 34961 ft | 541 kts | 129° |
| 2026-05-04 02:24 | 32.07839 | 68.42096 | 34958 ft | 541 kts | 129° |
| 2026-05-04 02:25 | 32.03027 | 68.48909 | 34957 ft | 541 kts | 130° |
| 2026-05-04 02:25 | 31.98204 | 68.55721 | 34963 ft | 541 kts | 130° |
| 2026-05-04 02:26 | 31.93377 | 68.62525 | 34941 ft | 541 kts | 130° |
| 2026-05-04 02:26 | 31.88573 | 68.69303 | 34938 ft | 538 kts | 130° |
| 2026-05-04 02:27 | 31.83795 | 68.76021 | 34916 ft | 539 kts | 130° |
| 2026-05-04 02:27 | 31.78976 | 68.82769 | 34926 ft | 539 kts | 130° |
| 2026-05-04 02:28 | 31.74161 | 68.89507 | 34913 ft | 536 kts | 130° |
| 2026-05-04 02:28 | 31.69374 | 68.96214 | 34914 ft | 536 kts | 130° |
| 2026-05-04 02:29 | 31.64603 | 69.02935 | 34904 ft | 534 kts | 128° |
| 2026-05-04 02:29 | 31.59988 | 69.09842 | 34908 ft | 539 kts | 128° |
| 2026-05-04 02:30 | 31.55371 | 69.16755 | 34897 ft | 538 kts | 128° |
| 2026-05-04 02:30 | 31.50730 | 69.23635 | 34913 ft | 537 kts | 128° |
| 2026-05-04 02:31 | 31.46094 | 69.30496 | 34898 ft | 537 kts | 128° |
| 2026-05-04 02:31 | 31.41458 | 69.37345 | 34884 ft | 536 kts | 128° |
| 2026-05-04 02:32 | 31.36787 | 69.44153 | 34882 ft | 536 kts | 131° |
| 2026-05-04 02:32 | 31.31357 | 69.50065 | 34883 ft | 534 kts | 143° |
| 2026-05-04 02:33 | 31.25565 | 69.55509 | 34900 ft | 534 kts | 142° |
| 2026-05-04 02:33 | 31.19800 | 69.60972 | 34878 ft | 533 kts | 142° |
| 2026-05-04 02:34 | 31.14040 | 69.66419 | 34879 ft | 533 kts | 142° |
| 2026-05-04 02:34 | 31.08277 | 69.71861 | 34881 ft | 533 kts | 142° |
| 2026-05-04 02:35 | 31.02599 | 69.77216 | 34862 ft | 532 kts | 142° |
| 2026-05-04 02:35 | 30.96795 | 69.82675 | 34853 ft | 532 kts | 143° |
| 2026-05-04 02:36 | 30.91064 | 69.88065 | 34868 ft | 534 kts | 143° |
| 2026-05-04 02:36 | 30.85286 | 69.93490 | 34857 ft | 534 kts | 143° |
| 2026-05-04 02:37 | 30.79504 | 69.98906 | 34853 ft | 534 kts | 143° |
| 2026-05-04 02:37 | 30.73722 | 70.04318 | 34834 ft | 533 kts | 142° |
| 2026-05-04 02:38 | 30.67944 | 70.09721 | 34823 ft | 533 kts | 143° |
| 2026-05-04 02:38 | 30.62156 | 70.15112 | 34815 ft | 534 kts | 143° |
| 2026-05-04 02:39 | 30.56355 | 70.20504 | 34826 ft | 534 kts | 143° |
| 2026-05-04 02:39 | 30.50586 | 70.25872 | 34800 ft | 531 kts | 143° |
| 2026-05-04 02:40 | 30.44798 | 70.31239 | 34805 ft | 532 kts | 143° |
| 2026-05-04 02:40 | 30.39013 | 70.36593 | 34777 ft | 532 kts | 143° |
| 2026-05-04 02:41 | 30.33215 | 70.41935 | 34773 ft | 533 kts | 144° |
| 2026-05-04 02:41 | 30.27431 | 70.47299 | 34736 ft | 533 kts | 144° |
| 2026-05-04 02:42 | 30.21641 | 70.52653 | 34740 ft | 533 kts | 144° |
| 2026-05-04 02:42 | 30.15898 | 70.58061 | 34744 ft | 529 kts | 142° |
| 2026-05-04 02:43 | 30.10218 | 70.63463 | 34732 ft | 530 kts | 143° |
| 2026-05-04 02:43 | 30.04521 | 70.68845 | 34720 ft | 530 kts | 143° |
| 2026-05-04 02:44 | 29.98789 | 70.74246 | 34726 ft | 532 kts | 143° |
| 2026-05-04 02:44 | 29.93060 | 70.79641 | 34714 ft | 532 kts | 143° |
| 2026-05-04 02:45 | 29.87336 | 70.85033 | 34710 ft | 531 kts | 143° |
| 2026-05-04 02:45 | 29.81610 | 70.90403 | 34715 ft | 530 kts | 143° |
| 2026-05-04 02:46 | 29.75913 | 70.95737 | 34706 ft | 527 kts | 143° |
| 2026-05-04 02:46 | 29.70254 | 71.01031 | 34692 ft | 528 kts | 143° |
| 2026-05-04 02:47 | 29.64616 | 71.06441 | 34683 ft | 529 kts | 140° |
| 2026-05-04 02:47 | 29.59156 | 71.12107 | 34697 ft | 529 kts | 140° |
| 2026-05-04 02:48 | 29.53629 | 71.17811 | 34690 ft | 532 kts | 140° |
| 2026-05-04 02:48 | 29.48114 | 71.23436 | 34687 ft | 533 kts | 141° |
| 2026-05-04 02:49 | 29.42584 | 71.29057 | 34684 ft | 531 kts | 141° |
| 2026-05-04 02:49 | 29.37050 | 71.34676 | 34680 ft | 531 kts | 141° |
| 2026-05-04 02:50 | 29.31505 | 71.40303 | 34677 ft | 535 kts | 141° |
| 2026-05-04 02:50 | 29.25939 | 71.45957 | 34675 ft | 534 kts | 140° |
| 2026-05-04 02:51 | 29.20402 | 71.51625 | 34673 ft | 534 kts | 140° |
| 2026-05-04 02:51 | 29.14863 | 71.57287 | 34676 ft | 533 kts | 140° |
| 2026-05-04 02:52 | 29.09359 | 71.62900 | 34653 ft | 530 kts | 141° |
| 2026-05-04 02:52 | 29.03822 | 71.68532 | 34669 ft | 533 kts | 141° |
| 2026-05-04 02:53 | 28.98286 | 71.74161 | 34664 ft | 533 kts | 141° |
| 2026-05-04 02:53 | 28.92742 | 71.79785 | 34664 ft | 533 kts | 141° |
| 2026-05-04 02:54 | 28.87197 | 71.85403 | 34664 ft | 533 kts | 141° |
| 2026-05-04 02:54 | 28.81654 | 71.91014 | 34655 ft | 533 kts | 141° |
| 2026-05-04 02:55 | 28.73381 | 71.99364 | 34663 ft | 528 kts | 141° |
| 2026-05-04 02:56 | 28.67871 | 72.04914 | 34658 ft | 529 kts | 141° |
| 2026-05-04 02:56 | 28.62408 | 72.10410 | 34658 ft | 528 kts | 141° |
| 2026-05-04 02:57 | 28.56868 | 72.15970 | 34664 ft | 533 kts | 141° |
| 2026-05-04 02:57 | 28.51340 | 72.21596 | 34667 ft | 535 kts | 137° |
| 2026-05-04 02:58 | 28.46632 | 72.28155 | 34663 ft | 534 kts | 124° |
| 2026-05-04 02:58 | 28.43124 | 72.35467 | 34661 ft | 532 kts | 118° |
| 2026-05-04 02:59 | 28.39699 | 72.42924 | 34661 ft | 532 kts | 118° |
| 2026-05-04 02:59 | 28.36246 | 72.50375 | 34657 ft | 536 kts | 118° |
| 2026-05-04 03:00 | 28.32768 | 72.57858 | 34666 ft | 536 kts | 118° |
| 2026-05-04 03:00 | 28.29295 | 72.65324 | 34667 ft | 532 kts | 119° |
| 2026-05-04 03:01 | 28.25810 | 72.72790 | 34669 ft | 532 kts | 119° |
| 2026-05-04 03:01 | 28.22374 | 72.80150 | 34671 ft | 532 kts | 119° |
| 2026-05-04 03:02 | 28.18910 | 72.87559 | 34672 ft | 532 kts | 119° |
| 2026-05-04 03:02 | 28.15440 | 72.94968 | 34646 ft | 533 kts | 119° |
| 2026-05-04 03:03 | 28.12549 | 73.01134 | 34677 ft | 533 kts | 120° |
| 2026-05-04 03:03 | 28.09065 | 73.08541 | 34678 ft | 533 kts | 120° |
| 2026-05-04 03:04 | 28.05575 | 73.15946 | 34681 ft | 533 kts | 120° |
| 2026-05-04 03:04 | 28.02081 | 73.23350 | 34682 ft | 533 kts | 120° |
| 2026-05-04 03:05 | 27.98588 | 73.30745 | 34686 ft | 533 kts | 120° |
| 2026-05-04 03:05 | 27.95113 | 73.38089 | 34691 ft | 528 kts | 120° |
| 2026-05-04 03:06 | 27.91629 | 73.45425 | 34690 ft | 532 kts | 120° |
| 2026-05-04 03:06 | 27.88122 | 73.52803 | 34699 ft | 532 kts | 120° |
| 2026-05-04 03:07 | 27.84614 | 73.60171 | 34697 ft | 532 kts | 120° |
| 2026-05-04 03:07 | 27.81109 | 73.67531 | 34709 ft | 531 kts | 121° |
| 2026-05-04 03:08 | 27.77607 | 73.74864 | 34712 ft | 530 kts | 121° |
| 2026-05-04 03:08 | 27.74124 | 73.82128 | 34714 ft | 530 kts | 121° |
| 2026-05-04 03:09 | 27.70717 | 73.89505 | 34675 ft | 530 kts | 118° |
| 2026-05-04 03:09 | 27.67450 | 73.96979 | 34719 ft | 534 kts | 118° |
| 2026-05-04 03:10 | 27.64149 | 74.04461 | 34723 ft | 528 kts | 119° |
| 2026-05-04 03:10 | 27.60854 | 74.11862 | 34732 ft | 529 kts | 119° |
| 2026-05-04 03:11 | 27.57548 | 74.19270 | 34731 ft | 529 kts | 119° |
| 2026-05-04 03:11 | 27.54241 | 74.26675 | 34734 ft | 529 kts | 119° |
| 2026-05-04 03:12 | 27.50927 | 74.34068 | 34738 ft | 529 kts | 119° |
| 2026-05-04 03:12 | 27.47613 | 74.41452 | 34749 ft | 528 kts | 120° |
| 2026-05-04 03:13 | 27.44295 | 74.48829 | 34744 ft | 527 kts | 120° |
| 2026-05-04 03:13 | 27.40981 | 74.56194 | 34758 ft | 527 kts | 120° |
| 2026-05-04 03:14 | 27.37665 | 74.63552 | 34755 ft | 527 kts | 120° |
| 2026-05-04 03:14 | 27.34341 | 74.70894 | 34760 ft | 527 kts | 120° |
| 2026-05-04 03:15 | 27.31038 | 74.78195 | 34760 ft | 527 kts | 120° |
| 2026-05-04 03:15 | 27.27711 | 74.85544 | 34775 ft | 527 kts | 120° |
| 2026-05-04 03:16 | 27.24374 | 74.92886 | 34766 ft | 527 kts | 120° |
| 2026-05-04 03:16 | 27.21031 | 75.00228 | 34777 ft | 528 kts | 120° |
| 2026-05-04 03:17 | 27.17681 | 75.07567 | 34787 ft | 528 kts | 121° |
| 2026-05-04 03:17 | 27.14335 | 75.14891 | 34798 ft | 527 kts | 121° |
| 2026-05-04 03:18 | 27.10982 | 75.22210 | 34796 ft | 527 kts | 121° |
| 2026-05-04 03:18 | 27.07642 | 75.29528 | 34796 ft | 526 kts | 121° |
| 2026-05-04 03:19 | 27.04291 | 75.36832 | 34808 ft | 526 kts | 121° |
| 2026-05-04 03:19 | 27.00933 | 75.44124 | 34787 ft | 526 kts | 121° |
| 2026-05-04 03:20 | 26.97576 | 75.51403 | 34806 ft | 526 kts | 121° |
| 2026-05-04 03:20 | 26.94212 | 75.58682 | 34817 ft | 526 kts | 121° |
| 2026-05-04 03:21 | 26.90848 | 75.65961 | 34819 ft | 526 kts | 121° |
| 2026-05-04 03:21 | 26.87480 | 75.73232 | 34828 ft | 526 kts | 121° |
| 2026-05-04 03:22 | 26.84103 | 75.80510 | 34823 ft | 527 kts | 122° |
| 2026-05-04 03:22 | 26.80669 | 75.87761 | 34823 ft | 526 kts | 124° |
| 2026-05-04 03:23 | 26.77029 | 75.94810 | 34815 ft | 526 kts | 124° |
| 2026-05-04 03:23 | 26.73370 | 76.01912 | 34810 ft | 528 kts | 124° |
| 2026-05-04 03:24 | 26.69720 | 76.09051 | 34815 ft | 528 kts | 124° |
| 2026-05-04 03:24 | 26.66081 | 76.16182 | 34805 ft | 526 kts | 124° |
| 2026-05-04 03:25 | 26.62486 | 76.23220 | 34814 ft | 521 kts | 124° |
| 2026-05-04 03:25 | 26.58873 | 76.30256 | 34810 ft | 522 kts | 124° |
| 2026-05-04 03:26 | 26.55263 | 76.37279 | 34819 ft | 522 kts | 124° |
| 2026-05-04 03:26 | 26.51648 | 76.44311 | 34811 ft | 522 kts | 125° |
| 2026-05-04 03:27 | 26.48078 | 76.51248 | 34822 ft | 527 kts | 125° |
| 2026-05-04 03:27 | 26.44484 | 76.58353 | 34823 ft | 525 kts | 123° |
| 2026-05-04 03:28 | 26.41082 | 76.65572 | 34828 ft | 526 kts | 122° |
| 2026-05-04 03:28 | 26.37669 | 76.72777 | 34826 ft | 525 kts | 123° |
| 2026-05-04 03:29 | 26.34227 | 76.79968 | 34824 ft | 526 kts | 123° |
| 2026-05-04 03:29 | 26.30774 | 76.87150 | 34818 ft | 526 kts | 123° |
| 2026-05-04 03:30 | 26.27326 | 76.94333 | 34827 ft | 525 kts | 123° |
| 2026-05-04 03:30 | 26.23879 | 77.01501 | 34819 ft | 525 kts | 123° |
| 2026-05-04 03:31 | 26.20424 | 77.08675 | 34820 ft | 525 kts | 123° |
| 2026-05-04 03:31 | 26.16958 | 77.15839 | 34823 ft | 526 kts | 123° |
| 2026-05-04 03:32 | 26.13494 | 77.22999 | 34810 ft | 526 kts | 123° |
| 2026-05-04 03:32 | 26.10019 | 77.30134 | 34838 ft | 523 kts | 123° |
| 2026-05-04 03:33 | 26.06548 | 77.37250 | 34826 ft | 523 kts | 123° |
| 2026-05-04 03:33 | 26.03074 | 77.44350 | 34826 ft | 522 kts | 123° |
| 2026-05-04 03:34 | 25.99607 | 77.51442 | 34813 ft | 522 kts | 123° |
| 2026-05-04 03:34 | 25.96131 | 77.58527 | 34823 ft | 522 kts | 123° |
| 2026-05-04 03:35 | 25.92654 | 77.65602 | 34829 ft | 522 kts | 123° |
| 2026-05-04 03:35 | 25.89176 | 77.72672 | 34827 ft | 522 kts | 123° |
| 2026-05-04 03:36 | 25.85721 | 77.79696 | 34827 ft | 522 kts | 123° |
| 2026-05-04 03:36 | 25.82230 | 77.86762 | 34831 ft | 522 kts | 123° |
| 2026-05-04 03:37 | 25.78747 | 77.93824 | 34831 ft | 522 kts | 123° |
| 2026-05-04 03:37 | 25.75284 | 78.00831 | 34805 ft | 521 kts | 124° |
| 2026-05-04 03:38 | 25.71790 | 78.07876 | 34815 ft | 522 kts | 124° |
| 2026-05-04 03:38 | 25.68289 | 78.14922 | 34815 ft | 522 kts | 124° |
| 2026-05-04 03:39 | 25.64783 | 78.21968 | 34812 ft | 522 kts | 124° |
| 2026-05-04 03:39 | 25.61275 | 78.29018 | 34801 ft | 522 kts | 124° |
| 2026-05-04 03:40 | 25.57789 | 78.36077 | 34803 ft | 523 kts | 123° |
| 2026-05-04 03:40 | 25.54322 | 78.43157 | 34799 ft | 523 kts | 123° |
| 2026-05-04 03:41 | 25.50851 | 78.50227 | 34817 ft | 523 kts | 123° |
| 2026-05-04 03:41 | 25.47365 | 78.57297 | 34796 ft | 523 kts | 124° |
| 2026-05-04 03:42 | 25.43872 | 78.64370 | 34796 ft | 524 kts | 124° |
| 2026-05-04 03:42 | 25.40374 | 78.71450 | 34798 ft | 525 kts | 124° |